DLH411 KJFK-EDDM
Flight info
| Callsign | DLH411 |
|---|---|
| Flight time | 6h 56m |
| Altitude | 39000 |
| Route | BETTE DCT ACK DCT BRADD N427A ELSIR/M084F390 DCT 50N050W DCT MALOT/N0489F390 DCT GISTI/N0491F410 DCT SLANY DCT OKSAW DCT KONAN UL607 FERDI DCT REMBA UL607 SPI DCT MOVUM T109 HAREM T104 ROKIL ROKIL1B |
| Aircraft | A359/H-SDE2E3GHIJ3J4J5LM1ORWXY/LB1D1 |
Departure
| Time | 2026-05-07 18:02 |
|---|---|
| Airport | John F. Kennedy International Airport (KJFK) |
Arrival
| Time | 2026-05-08 00:59 |
|---|---|
| Airport | Munich Airport (EDDM) |
| Time | Latitude | Longitude | Altitude | Speed | Heading |
|---|---|---|---|---|---|
| 2026-05-07 17:50 | 40.64031 | -73.79191 | 30 ft | 0 kts | 224° |
| 2026-05-07 17:54 | 40.64021 | -73.79205 | 30 ft | 7 kts | 224° |
| 2026-05-07 17:54 | 40.63971 | -73.79268 | 27 ft | 13 kts | 224° |
| 2026-05-07 17:54 | 40.63923 | -73.79326 | 27 ft | 4 kts | 213° |
| 2026-05-07 17:54 | 40.63913 | -73.79321 | 27 ft | 2 kts | 159° |
| 2026-05-07 17:55 | 40.63877 | -73.79276 | 26 ft | 9 kts | 127° |
| 2026-05-07 17:55 | 40.63846 | -73.79202 | 28 ft | 10 kts | 118° |
| 2026-05-07 17:55 | 40.63813 | -73.79121 | 29 ft | 11 kts | 119° |
| 2026-05-07 17:55 | 40.63770 | -73.79030 | 28 ft | 13 kts | 122° |
| 2026-05-07 17:56 | 40.63722 | -73.78928 | 31 ft | 13 kts | 122° |
| 2026-05-07 17:56 | 40.63677 | -73.78831 | 33 ft | 13 kts | 121° |
| 2026-05-07 17:56 | 40.63627 | -73.78721 | 33 ft | 15 kts | 120° |
| 2026-05-07 17:56 | 40.63571 | -73.78596 | 34 ft | 16 kts | 121° |
| 2026-05-07 17:57 | 40.63510 | -73.78461 | 33 ft | 19 kts | 120° |
| 2026-05-07 17:57 | 40.63463 | -73.78356 | 31 ft | 21 kts | 121° |
| 2026-05-07 17:57 | 40.63364 | -73.78134 | 31 ft | 19 kts | 120° |
| 2026-05-07 17:57 | 40.63332 | -73.78014 | 31 ft | 11 kts | 97° |
| 2026-05-07 17:58 | 40.63335 | -73.77931 | 31 ft | 8 kts | 80° |
| 2026-05-07 17:58 | 40.63334 | -73.77849 | 33 ft | 9 kts | 104° |
| 2026-05-07 17:58 | 40.63305 | -73.77778 | 34 ft | 12 kts | 121° |
| 2026-05-07 17:58 | 40.63232 | -73.77620 | 34 ft | 26 kts | 122° |
| 2026-05-07 17:59 | 40.63134 | -73.77411 | 35 ft | 28 kts | 121° |
| 2026-05-07 17:59 | 40.63033 | -73.77192 | 32 ft | 24 kts | 121° |
| 2026-05-07 17:59 | 40.62984 | -73.77092 | 29 ft | 9 kts | 133° |
| 2026-05-07 17:59 | 40.62935 | -73.77096 | 30 ft | 7 kts | 208° |
| 2026-05-07 18:00 | 40.62884 | -73.77133 | 30 ft | 12 kts | 209° |
| 2026-05-07 18:00 | 40.62794 | -73.77204 | 28 ft | 16 kts | 211° |
| 2026-05-07 18:00 | 40.62689 | -73.77250 | 31 ft | 15 kts | 174° |
| 2026-05-07 18:00 | 40.62598 | -73.77203 | 31 ft | 14 kts | 134° |
| 2026-05-07 18:01 | 40.62577 | -73.77112 | 31 ft | 7 kts | 98° |
| 2026-05-07 18:01 | 40.62570 | -73.77043 | 31 ft | 8 kts | 90° |
| 2026-05-07 18:01 | 40.62593 | -73.76992 | 31 ft | 1 kts | 29° |
| 2026-05-07 18:02 | 40.62956 | -73.76708 | 27 ft | 102 kts | 30° |
| 2026-05-07 18:02 | 40.63795 | -73.76043 | 220 ft | 162 kts | 29° |
| 2026-05-07 18:02 | 40.64781 | -73.75190 | 1070 ft | 178 kts | 32° |
| 2026-05-07 18:03 | 40.65780 | -73.74150 | 1981 ft | 183 kts | 39° |
| 2026-05-07 18:03 | 40.66633 | -73.72929 | 2752 ft | 184 kts | 51° |
| 2026-05-07 18:03 | 40.67211 | -73.71321 | 3079 ft | 207 kts | 78° |
| 2026-05-07 18:03 | 40.67288 | -73.69375 | 3492 ft | 223 kts | 92° |
| 2026-05-07 18:04 | 40.67065 | -73.67320 | 4006 ft | 233 kts | 99° |
| 2026-05-07 18:04 | 40.66678 | -73.65133 | 4375 ft | 252 kts | 103° |
| 2026-05-07 18:04 | 40.66218 | -73.62837 | 4809 ft | 266 kts | 103° |
| 2026-05-07 18:04 | 40.65755 | -73.60463 | 5018 ft | 275 kts | 102° |
| 2026-05-07 18:05 | 40.65304 | -73.57996 | 5304 ft | 278 kts | 101° |
| 2026-05-07 18:05 | 40.64870 | -73.55481 | 5881 ft | 285 kts | 101° |
| 2026-05-07 18:05 | 40.64438 | -73.52880 | 6523 ft | 295 kts | 100° |
| 2026-05-07 18:05 | 40.64001 | -73.50190 | 7152 ft | 303 kts | 101° |
| 2026-05-07 18:06 | 40.63555 | -73.47437 | 7810 ft | 312 kts | 103° |
| 2026-05-07 18:06 | 40.63095 | -73.44609 | 8501 ft | 320 kts | 104° |
| 2026-05-07 18:06 | 40.62619 | -73.41700 | 9169 ft | 329 kts | 105° |
| 2026-05-07 18:06 | 40.62130 | -73.38721 | 9821 ft | 338 kts | 106° |
| 2026-05-07 18:07 | 40.61624 | -73.35651 | 10341 ft | 351 kts | 107° |
| 2026-05-07 18:07 | 40.61087 | -73.32429 | 10685 ft | 370 kts | 107° |
| 2026-05-07 18:07 | 40.60522 | -73.29038 | 11024 ft | 388 kts | 107° |
| 2026-05-07 18:07 | 40.59940 | -73.25517 | 11559 ft | 398 kts | 107° |
| 2026-05-07 18:08 | 40.59351 | -73.21935 | 12250 ft | 403 kts | 107° |
| 2026-05-07 18:08 | 40.58757 | -73.18307 | 12944 ft | 408 kts | 108° |
| 2026-05-07 18:08 | 40.58156 | -73.14653 | 13672 ft | 412 kts | 108° |
| 2026-05-07 18:08 | 40.57546 | -73.10966 | 14312 ft | 416 kts | 108° |
| 2026-05-07 18:09 | 40.56925 | -73.07222 | 14898 ft | 422 kts | 108° |
| 2026-05-07 18:09 | 40.56494 | -73.03358 | 15469 ft | 433 kts | 98° |
| 2026-05-07 18:09 | 40.56637 | -72.99355 | 16023 ft | 444 kts | 83° |
| 2026-05-07 18:09 | 40.57296 | -72.95359 | 16587 ft | 451 kts | 76° |
| 2026-05-07 18:10 | 40.58210 | -72.91371 | 17077 ft | 459 kts | 72° |
| 2026-05-07 18:10 | 40.59257 | -72.87381 | 17606 ft | 466 kts | 70° |
| 2026-05-07 18:10 | 40.60364 | -72.83336 | 18151 ft | 471 kts | 70° |
| 2026-05-07 18:10 | 40.61461 | -72.79313 | 18616 ft | 477 kts | 71° |
| 2026-05-07 18:11 | 40.62564 | -72.75181 | 19071 ft | 483 kts | 71° |
| 2026-05-07 18:11 | 40.63310 | -72.72336 | 19397 ft | 487 kts | 72° |
| 2026-05-07 18:11 | 40.64765 | -72.66686 | 20030 ft | 495 kts | 72° |
| 2026-05-07 18:11 | 40.65864 | -72.62366 | 20497 ft | 501 kts | 73° |
| 2026-05-07 18:12 | 40.66969 | -72.57995 | 21024 ft | 506 kts | 73° |
| 2026-05-07 18:12 | 40.68087 | -72.53559 | 21454 ft | 513 kts | 73° |
| 2026-05-07 18:12 | 40.69217 | -72.49074 | 21929 ft | 519 kts | 73° |
| 2026-05-07 18:12 | 40.70361 | -72.44538 | 22417 ft | 525 kts | 73° |
| 2026-05-07 18:13 | 40.71517 | -72.39950 | 22881 ft | 530 kts | 73° |
| 2026-05-07 18:13 | 40.72683 | -72.35313 | 23344 ft | 536 kts | 73° |
| 2026-05-07 18:13 | 40.73860 | -72.30618 | 23751 ft | 541 kts | 73° |
| 2026-05-07 18:13 | 40.75042 | -72.25885 | 24164 ft | 546 kts | 73° |
| 2026-05-07 18:14 | 40.76231 | -72.21114 | 24574 ft | 549 kts | 73° |
| 2026-05-07 18:14 | 40.77424 | -72.16319 | 25014 ft | 553 kts | 73° |
| 2026-05-07 18:14 | 40.78627 | -72.11479 | 25414 ft | 557 kts | 73° |
| 2026-05-07 18:14 | 40.79837 | -72.06598 | 25840 ft | 563 kts | 73° |
| 2026-05-07 18:15 | 40.81056 | -72.01666 | 26194 ft | 568 kts | 73° |
| 2026-05-07 18:15 | 40.82282 | -71.96697 | 26612 ft | 571 kts | 74° |
| 2026-05-07 18:15 | 40.83515 | -71.91694 | 27005 ft | 575 kts | 74° |
| 2026-05-07 18:15 | 40.84755 | -71.86654 | 27386 ft | 578 kts | 74° |
| 2026-05-07 18:16 | 40.85995 | -71.81602 | 27812 ft | 581 kts | 74° |
| 2026-05-07 18:16 | 40.87243 | -71.76504 | 28184 ft | 585 kts | 74° |
| 2026-05-07 18:16 | 40.88499 | -71.71363 | 28554 ft | 589 kts | 74° |
| 2026-05-07 18:16 | 40.89760 | -71.66193 | 28922 ft | 593 kts | 74° |
| 2026-05-07 18:17 | 40.91026 | -71.60986 | 29282 ft | 597 kts | 74° |
| 2026-05-07 18:17 | 40.92299 | -71.55741 | 29640 ft | 602 kts | 74° |
| 2026-05-07 18:17 | 40.93580 | -71.50454 | 29958 ft | 605 kts | 74° |
| 2026-05-07 18:17 | 40.94864 | -71.45140 | 30282 ft | 608 kts | 74° |
| 2026-05-07 18:18 | 40.96154 | -71.39790 | 30587 ft | 611 kts | 74° |
| 2026-05-07 18:18 | 40.97445 | -71.34426 | 30900 ft | 614 kts | 74° |
| 2026-05-07 18:18 | 40.98739 | -71.29033 | 31188 ft | 616 kts | 74° |
| 2026-05-07 18:18 | 41.00038 | -71.23606 | 31495 ft | 619 kts | 74° |
| 2026-05-07 18:19 | 41.01338 | -71.18164 | 31762 ft | 622 kts | 74° |
| 2026-05-07 18:19 | 41.02642 | -71.12692 | 32026 ft | 624 kts | 74° |
| 2026-05-07 18:19 | 41.03947 | -71.07203 | 32330 ft | 627 kts | 74° |
| 2026-05-07 18:19 | 41.05240 | -71.01748 | 32537 ft | 630 kts | 74° |
| 2026-05-07 18:20 | 41.06553 | -70.96198 | 32778 ft | 633 kts | 74° |
| 2026-05-07 18:20 | 41.07868 | -70.90626 | 33038 ft | 635 kts | 74° |
| 2026-05-07 18:20 | 41.09184 | -70.85037 | 33227 ft | 637 kts | 74° |
| 2026-05-07 18:20 | 41.10501 | -70.79429 | 33491 ft | 638 kts | 74° |
| 2026-05-07 18:21 | 41.11820 | -70.73798 | 33729 ft | 640 kts | 74° |
| 2026-05-07 18:21 | 41.13136 | -70.68169 | 34021 ft | 639 kts | 74° |
| 2026-05-07 18:21 | 41.14450 | -70.62533 | 34318 ft | 638 kts | 74° |
| 2026-05-07 18:21 | 41.15757 | -70.56911 | 34632 ft | 637 kts | 74° |
| 2026-05-07 18:22 | 41.17059 | -70.51301 | 34880 ft | 636 kts | 74° |
| 2026-05-07 18:22 | 41.17497 | -70.49408 | 34992 ft | 635 kts | 74° |
| 2026-05-07 18:22 | 41.19646 | -70.40104 | 35494 ft | 633 kts | 74° |
| 2026-05-07 18:22 | 41.20933 | -70.34513 | 35752 ft | 633 kts | 74° |
| 2026-05-07 18:23 | 41.22216 | -70.28923 | 36012 ft | 633 kts | 74° |
| 2026-05-07 18:23 | 41.23496 | -70.23337 | 36274 ft | 632 kts | 74° |
| 2026-05-07 18:23 | 41.24771 | -70.17755 | 36455 ft | 632 kts | 74° |
| 2026-05-07 18:23 | 41.26045 | -70.12164 | 36715 ft | 631 kts | 74° |
| 2026-05-07 18:24 | 41.27431 | -70.06640 | 36973 ft | 631 kts | 66° |
| 2026-05-07 18:24 | 41.29437 | -70.01486 | 37141 ft | 626 kts | 53° |
| 2026-05-07 18:24 | 41.32002 | -69.96846 | 37357 ft | 621 kts | 46° |
| 2026-05-07 18:24 | 41.34713 | -69.92382 | 37581 ft | 618 kts | 44° |
| 2026-05-07 18:25 | 41.37493 | -69.88027 | 37807 ft | 616 kts | 43° |
| 2026-05-07 18:25 | 41.42170 | -69.80894 | 38212 ft | 614 kts | 43° |
| 2026-05-07 18:25 | 41.44979 | -69.76619 | 38452 ft | 613 kts | 42° |
| 2026-05-07 18:26 | 41.47778 | -69.72330 | 38627 ft | 612 kts | 43° |
| 2026-05-07 18:26 | 41.50558 | -69.68037 | 38777 ft | 612 kts | 43° |
| 2026-05-07 18:26 | 41.53333 | -69.63725 | 38830 ft | 613 kts | 43° |
| 2026-05-07 18:27 | 41.58877 | -69.55055 | 38866 ft | 613 kts | 43° |
| 2026-05-07 18:27 | 41.64402 | -69.46380 | 38830 ft | 613 kts | 43° |
| 2026-05-07 18:28 | 41.69929 | -69.37685 | 38826 ft | 613 kts | 43° |
| 2026-05-07 18:28 | 41.75447 | -69.28985 | 38840 ft | 613 kts | 44° |
| 2026-05-07 18:29 | 41.80958 | -69.20270 | 38825 ft | 613 kts | 44° |
| 2026-05-07 18:29 | 41.86460 | -69.11545 | 38822 ft | 613 kts | 44° |
| 2026-05-07 18:30 | 41.91963 | -69.02792 | 38828 ft | 612 kts | 44° |
| 2026-05-07 18:30 | 41.97446 | -68.94044 | 38810 ft | 612 kts | 44° |
| 2026-05-07 18:31 | 42.02924 | -68.85279 | 38766 ft | 612 kts | 44° |
| 2026-05-07 18:31 | 42.08399 | -68.76494 | 38817 ft | 611 kts | 44° |
| 2026-05-07 18:32 | 42.13855 | -68.67712 | 38811 ft | 611 kts | 44° |
| 2026-05-07 18:32 | 42.19306 | -68.58913 | 38839 ft | 611 kts | 44° |
| 2026-05-07 18:33 | 42.24747 | -68.50104 | 38780 ft | 611 kts | 44° |
| 2026-05-07 18:33 | 42.30180 | -68.41283 | 38814 ft | 611 kts | 44° |
| 2026-05-07 18:34 | 42.35610 | -68.32436 | 38827 ft | 611 kts | 45° |
| 2026-05-07 18:34 | 42.40966 | -68.23656 | 38803 ft | 610 kts | 45° |
| 2026-05-07 18:35 | 42.46369 | -68.14795 | 38781 ft | 610 kts | 45° |
| 2026-05-07 18:35 | 42.51763 | -68.05931 | 38805 ft | 609 kts | 45° |
| 2026-05-07 18:36 | 42.57144 | -67.97057 | 38795 ft | 609 kts | 45° |
| 2026-05-07 18:36 | 42.62519 | -67.88169 | 38793 ft | 609 kts | 45° |
| 2026-05-07 18:37 | 42.67894 | -67.79266 | 38790 ft | 609 kts | 45° |
| 2026-05-07 18:37 | 42.73258 | -67.70354 | 38790 ft | 609 kts | 45° |
| 2026-05-07 18:38 | 42.78610 | -67.61429 | 38801 ft | 609 kts | 46° |
| 2026-05-07 18:38 | 42.83960 | -67.52475 | 38789 ft | 608 kts | 46° |
| 2026-05-07 18:39 | 42.89286 | -67.43537 | 38785 ft | 608 kts | 46° |
| 2026-05-07 18:39 | 42.94604 | -67.34585 | 38773 ft | 608 kts | 46° |
| 2026-05-07 18:40 | 42.99936 | -67.25586 | 38777 ft | 607 kts | 46° |
| 2026-05-07 18:40 | 43.05245 | -67.16598 | 38811 ft | 608 kts | 46° |
| 2026-05-07 18:41 | 43.10541 | -67.07586 | 38779 ft | 607 kts | 47° |
| 2026-05-07 18:41 | 43.15821 | -66.98586 | 38761 ft | 607 kts | 47° |
| 2026-05-07 18:42 | 43.20937 | -66.89384 | 38774 ft | 608 kts | 50° |
| 2026-05-07 18:42 | 43.25924 | -66.80029 | 38764 ft | 607 kts | 50° |
| 2026-05-07 18:43 | 43.30880 | -66.70750 | 38762 ft | 606 kts | 50° |
| 2026-05-07 18:43 | 43.35884 | -66.61420 | 38742 ft | 606 kts | 51° |
| 2026-05-07 18:44 | 43.40888 | -66.52119 | 38753 ft | 605 kts | 50° |
| 2026-05-07 18:44 | 43.45898 | -66.42802 | 38750 ft | 605 kts | 50° |
| 2026-05-07 18:45 | 43.50893 | -66.33485 | 38751 ft | 604 kts | 50° |
| 2026-05-07 18:45 | 43.55872 | -66.24155 | 38744 ft | 604 kts | 50° |
| 2026-05-07 18:46 | 43.60839 | -66.14797 | 38736 ft | 604 kts | 51° |
| 2026-05-07 18:46 | 43.65771 | -66.05453 | 38732 ft | 603 kts | 51° |
| 2026-05-07 18:47 | 43.70719 | -65.96054 | 38727 ft | 603 kts | 51° |
| 2026-05-07 18:47 | 43.75651 | -65.86690 | 38733 ft | 603 kts | 51° |
| 2026-05-07 18:48 | 43.80570 | -65.77320 | 38729 ft | 601 kts | 51° |
| 2026-05-07 18:48 | 43.85474 | -65.67938 | 38726 ft | 601 kts | 51° |
| 2026-05-07 18:49 | 43.90366 | -65.58549 | 38742 ft | 601 kts | 51° |
| 2026-05-07 18:49 | 43.95237 | -65.49175 | 38720 ft | 599 kts | 51° |
| 2026-05-07 18:50 | 44.00108 | -65.39787 | 38718 ft | 598 kts | 51° |
| 2026-05-07 18:50 | 44.04954 | -65.30406 | 38710 ft | 598 kts | 51° |
| 2026-05-07 18:51 | 44.09789 | -65.21004 | 38712 ft | 598 kts | 52° |
| 2026-05-07 18:51 | 44.14624 | -65.11571 | 38667 ft | 598 kts | 51° |
| 2026-05-07 18:52 | 44.19460 | -65.02106 | 38710 ft | 600 kts | 52° |
| 2026-05-07 18:52 | 44.24285 | -64.92631 | 38705 ft | 598 kts | 52° |
| 2026-05-07 18:53 | 44.29083 | -64.83179 | 38697 ft | 598 kts | 52° |
| 2026-05-07 18:53 | 44.33876 | -64.73705 | 38706 ft | 597 kts | 52° |
| 2026-05-07 18:54 | 44.38579 | -64.64380 | 38688 ft | 596 kts | 52° |
| 2026-05-07 18:54 | 44.43353 | -64.54883 | 38676 ft | 596 kts | 52° |
| 2026-05-07 18:55 | 44.48104 | -64.45401 | 38677 ft | 595 kts | 52° |
| 2026-05-07 18:55 | 44.52817 | -64.35963 | 38670 ft | 594 kts | 53° |
| 2026-05-07 18:56 | 44.57552 | -64.26451 | 38670 ft | 595 kts | 53° |
| 2026-05-07 18:56 | 44.62272 | -64.16939 | 38676 ft | 594 kts | 53° |
| 2026-05-07 18:57 | 44.67016 | -64.07345 | 38679 ft | 594 kts | 53° |
| 2026-05-07 18:57 | 44.71692 | -63.97858 | 38685 ft | 594 kts | 53° |
| 2026-05-07 18:58 | 44.76385 | -63.88306 | 38690 ft | 593 kts | 53° |
| 2026-05-07 18:58 | 44.81056 | -63.78764 | 38685 ft | 591 kts | 53° |
| 2026-05-07 18:59 | 44.85707 | -63.69233 | 38694 ft | 591 kts | 53° |
| 2026-05-07 18:59 | 44.90360 | -63.59667 | 38698 ft | 589 kts | 53° |
| 2026-05-07 19:00 | 44.94974 | -63.50147 | 38654 ft | 588 kts | 53° |
| 2026-05-07 19:00 | 44.99587 | -63.40599 | 38691 ft | 590 kts | 54° |
| 2026-05-07 19:01 | 45.04203 | -63.31016 | 38701 ft | 590 kts | 54° |
| 2026-05-07 19:01 | 45.08815 | -63.21404 | 38688 ft | 587 kts | 54° |
| 2026-05-07 19:02 | 45.13379 | -63.11862 | 38692 ft | 587 kts | 54° |
| 2026-05-07 19:02 | 45.17887 | -63.02406 | 38701 ft | 587 kts | 54° |
| 2026-05-07 19:03 | 45.22451 | -62.92802 | 38703 ft | 587 kts | 54° |
| 2026-05-07 19:03 | 45.26998 | -62.83198 | 38702 ft | 587 kts | 54° |
| 2026-05-07 19:04 | 45.31541 | -62.73572 | 38706 ft | 586 kts | 54° |
| 2026-05-07 19:04 | 45.36075 | -62.63933 | 38706 ft | 587 kts | 54° |
| 2026-05-07 19:05 | 45.40599 | -62.54286 | 38710 ft | 585 kts | 54° |
| 2026-05-07 19:05 | 45.45108 | -62.44636 | 38711 ft | 585 kts | 54° |
| 2026-05-07 19:06 | 45.49607 | -62.34973 | 38713 ft | 587 kts | 54° |
| 2026-05-07 19:06 | 45.56355 | -62.20411 | 38714 ft | 587 kts | 55° |
| 2026-05-07 19:07 | 45.60843 | -62.10686 | 38705 ft | 585 kts | 55° |
| 2026-05-07 19:07 | 45.65306 | -62.00983 | 38712 ft | 584 kts | 55° |
| 2026-05-07 19:08 | 45.69759 | -61.91270 | 38710 ft | 584 kts | 55° |
| 2026-05-07 19:08 | 45.74175 | -61.81605 | 38682 ft | 583 kts | 55° |
| 2026-05-07 19:09 | 45.78614 | -61.71858 | 38705 ft | 585 kts | 55° |
| 2026-05-07 19:09 | 45.83051 | -61.62077 | 38738 ft | 585 kts | 55° |
| 2026-05-07 19:10 | 45.87482 | -61.52277 | 38728 ft | 585 kts | 55° |
| 2026-05-07 19:10 | 45.91901 | -61.42472 | 38724 ft | 585 kts | 55° |
| 2026-05-07 19:11 | 45.96311 | -61.32649 | 38723 ft | 585 kts | 56° |
| 2026-05-07 19:11 | 46.00651 | -61.22949 | 38748 ft | 585 kts | 56° |
| 2026-05-07 19:12 | 46.04301 | -61.14765 | 38721 ft | 583 kts | 56° |
| 2026-05-07 19:12 | 46.08666 | -61.04946 | 38711 ft | 581 kts | 56° |
| 2026-05-07 19:13 | 46.13011 | -60.95137 | 38709 ft | 581 kts | 56° |
| 2026-05-07 19:13 | 46.18054 | -60.83713 | 38734 ft | 579 kts | 56° |
| 2026-05-07 19:14 | 46.21658 | -60.75518 | 38735 ft | 577 kts | 56° |
| 2026-05-07 19:14 | 46.25950 | -60.65728 | 38735 ft | 577 kts | 56° |
| 2026-05-07 19:15 | 46.30234 | -60.55921 | 38725 ft | 576 kts | 57° |
| 2026-05-07 19:15 | 46.34489 | -60.46145 | 38728 ft | 574 kts | 57° |
| 2026-05-07 19:16 | 46.38723 | -60.36383 | 38734 ft | 573 kts | 57° |
| 2026-05-07 19:16 | 46.42932 | -60.26648 | 38737 ft | 573 kts | 57° |
| 2026-05-07 19:17 | 46.47178 | -60.16789 | 38740 ft | 573 kts | 57° |
| 2026-05-07 19:17 | 46.51369 | -60.07026 | 38739 ft | 573 kts | 57° |
| 2026-05-07 19:18 | 46.55602 | -59.97130 | 38756 ft | 573 kts | 57° |
| 2026-05-07 19:18 | 46.59766 | -59.87360 | 38755 ft | 571 kts | 58° |
| 2026-05-07 19:19 | 46.63929 | -59.77554 | 38760 ft | 571 kts | 58° |
| 2026-05-07 19:19 | 46.68092 | -59.67718 | 38760 ft | 571 kts | 58° |
| 2026-05-07 19:20 | 46.72245 | -59.57869 | 38768 ft | 570 kts | 58° |
| 2026-05-07 19:20 | 46.76377 | -59.48035 | 38782 ft | 568 kts | 58° |
| 2026-05-07 19:21 | 46.80494 | -59.38200 | 38781 ft | 568 kts | 58° |
| 2026-05-07 19:21 | 46.84602 | -59.28352 | 38787 ft | 568 kts | 58° |
| 2026-05-07 19:22 | 46.88697 | -59.18502 | 38793 ft | 568 kts | 58° |
| 2026-05-07 19:22 | 46.92795 | -59.08606 | 38783 ft | 568 kts | 58° |
| 2026-05-07 19:23 | 46.96878 | -58.98715 | 38802 ft | 568 kts | 58° |
| 2026-05-07 19:23 | 47.00945 | -58.88824 | 38807 ft | 566 kts | 58° |
| 2026-05-07 19:24 | 47.04993 | -58.78942 | 38814 ft | 565 kts | 59° |
| 2026-05-07 19:24 | 47.09041 | -58.69028 | 38828 ft | 565 kts | 59° |
| 2026-05-07 19:25 | 47.13061 | -58.59143 | 38831 ft | 564 kts | 59° |
| 2026-05-07 19:25 | 47.17044 | -58.49315 | 38837 ft | 563 kts | 59° |
| 2026-05-07 19:26 | 47.21069 | -58.39350 | 38845 ft | 563 kts | 59° |
| 2026-05-07 19:26 | 47.25032 | -58.29499 | 38886 ft | 563 kts | 59° |
| 2026-05-07 19:27 | 47.29003 | -58.19593 | 38865 ft | 561 kts | 59° |
| 2026-05-07 19:27 | 47.32964 | -58.09677 | 38867 ft | 562 kts | 59° |
| 2026-05-07 19:28 | 47.36929 | -57.99712 | 38879 ft | 563 kts | 59° |
| 2026-05-07 19:28 | 47.40887 | -57.89731 | 38897 ft | 562 kts | 59° |
| 2026-05-07 19:29 | 47.44818 | -57.79778 | 38900 ft | 560 kts | 59° |
| 2026-05-07 19:29 | 47.48728 | -57.69844 | 38911 ft | 560 kts | 59° |
| 2026-05-07 19:30 | 47.52640 | -57.59867 | 38924 ft | 560 kts | 59° |
| 2026-05-07 19:30 | 47.56521 | -57.49932 | 38923 ft | 553 kts | 59° |
| 2026-05-07 19:31 | 47.60347 | -57.40102 | 38930 ft | 551 kts | 59° |
| 2026-05-07 19:31 | 47.64175 | -57.30233 | 38917 ft | 551 kts | 59° |
| 2026-05-07 19:32 | 47.67984 | -57.20376 | 38928 ft | 548 kts | 59° |
| 2026-05-07 19:32 | 47.71752 | -57.10586 | 38932 ft | 545 kts | 59° |
| 2026-05-07 19:33 | 47.75500 | -57.00816 | 38929 ft | 544 kts | 59° |
| 2026-05-07 19:33 | 47.79237 | -56.91038 | 38932 ft | 545 kts | 59° |
| 2026-05-07 19:34 | 47.82955 | -56.81275 | 38916 ft | 541 kts | 59° |
| 2026-05-07 19:34 | 47.86650 | -56.71535 | 38904 ft | 539 kts | 60° |
| 2026-05-07 19:35 | 47.90330 | -56.61800 | 38898 ft | 539 kts | 60° |
| 2026-05-07 19:35 | 47.94005 | -56.52044 | 38906 ft | 539 kts | 60° |
| 2026-05-07 19:36 | 47.97670 | -56.42276 | 38888 ft | 538 kts | 60° |
| 2026-05-07 19:36 | 48.01318 | -56.32519 | 38884 ft | 538 kts | 60° |
| 2026-05-07 19:37 | 48.04951 | -56.22765 | 38882 ft | 538 kts | 60° |
| 2026-05-07 19:37 | 48.08575 | -56.13000 | 38877 ft | 537 kts | 60° |
| 2026-05-07 19:38 | 48.12190 | -56.03224 | 38893 ft | 535 kts | 61° |
| 2026-05-07 19:38 | 48.15794 | -55.93441 | 38897 ft | 535 kts | 61° |
| 2026-05-07 19:39 | 48.19371 | -55.83697 | 38903 ft | 535 kts | 61° |
| 2026-05-07 19:39 | 48.22953 | -55.73900 | 38909 ft | 535 kts | 61° |
| 2026-05-07 19:40 | 48.26521 | -55.64105 | 38911 ft | 535 kts | 61° |
| 2026-05-07 19:40 | 48.30082 | -55.54295 | 38920 ft | 535 kts | 61° |
| 2026-05-07 19:41 | 48.33633 | -55.44474 | 38925 ft | 535 kts | 61° |
| 2026-05-07 19:41 | 48.37150 | -55.34711 | 38924 ft | 534 kts | 61° |
| 2026-05-07 19:42 | 48.40680 | -55.24875 | 38935 ft | 534 kts | 62° |
| 2026-05-07 19:42 | 48.44201 | -55.15028 | 38940 ft | 534 kts | 62° |
| 2026-05-07 19:43 | 48.47709 | -55.05181 | 38949 ft | 532 kts | 62° |
| 2026-05-07 19:43 | 48.51186 | -54.95382 | 38958 ft | 531 kts | 62° |
| 2026-05-07 19:44 | 48.54666 | -54.85538 | 38963 ft | 531 kts | 62° |
| 2026-05-07 19:44 | 48.58134 | -54.75692 | 38963 ft | 531 kts | 62° |
| 2026-05-07 19:45 | 48.61588 | -54.65847 | 38992 ft | 529 kts | 62° |
| 2026-05-07 19:45 | 48.65019 | -54.56033 | 38990 ft | 528 kts | 62° |
| 2026-05-07 19:46 | 48.68438 | -54.46212 | 38987 ft | 527 kts | 62° |
| 2026-05-07 19:46 | 48.71847 | -54.36386 | 38996 ft | 527 kts | 62° |
| 2026-05-07 19:47 | 48.75241 | -54.26566 | 39001 ft | 524 kts | 63° |
| 2026-05-07 19:47 | 48.78606 | -54.16790 | 39001 ft | 522 kts | 63° |
| 2026-05-07 19:48 | 48.81946 | -54.07050 | 38972 ft | 522 kts | 63° |
| 2026-05-07 19:48 | 48.85292 | -53.97257 | 39000 ft | 521 kts | 63° |
| 2026-05-07 19:49 | 48.88619 | -53.87482 | 38997 ft | 523 kts | 64° |
| 2026-05-07 19:49 | 48.91960 | -53.77629 | 39000 ft | 523 kts | 64° |
| 2026-05-07 19:50 | 48.95284 | -53.67787 | 39001 ft | 523 kts | 64° |
| 2026-05-07 19:50 | 48.98596 | -53.57946 | 39006 ft | 523 kts | 64° |
| 2026-05-07 19:51 | 49.01903 | -53.48078 | 39001 ft | 524 kts | 64° |
| 2026-05-07 19:51 | 49.05213 | -53.38161 | 39007 ft | 524 kts | 64° |
| 2026-05-07 19:52 | 49.08505 | -53.28263 | 39007 ft | 524 kts | 64° |
| 2026-05-07 19:52 | 49.11792 | -53.18343 | 39009 ft | 524 kts | 65° |
| 2026-05-07 19:53 | 49.15069 | -53.08408 | 39010 ft | 526 kts | 65° |
| 2026-05-07 19:53 | 49.18357 | -52.98405 | 39018 ft | 526 kts | 65° |
| 2026-05-07 19:54 | 49.21634 | -52.88395 | 39034 ft | 527 kts | 65° |
| 2026-05-07 19:54 | 49.24904 | -52.78369 | 39036 ft | 527 kts | 65° |
| 2026-05-07 19:55 | 49.28142 | -52.68397 | 39039 ft | 528 kts | 66° |
| 2026-05-07 19:55 | 49.31411 | -52.58294 | 39037 ft | 528 kts | 66° |
| 2026-05-07 19:56 | 49.34661 | -52.48206 | 39046 ft | 528 kts | 66° |
| 2026-05-07 19:56 | 49.37912 | -52.38077 | 39049 ft | 528 kts | 66° |
| 2026-05-07 19:57 | 49.41147 | -52.27953 | 39050 ft | 528 kts | 66° |
| 2026-05-07 19:57 | 49.44367 | -52.17839 | 39047 ft | 528 kts | 66° |
| 2026-05-07 19:58 | 49.47579 | -52.07708 | 39057 ft | 528 kts | 66° |
| 2026-05-07 19:58 | 49.50788 | -51.97512 | 39057 ft | 527 kts | 68° |
| 2026-05-07 19:59 | 49.53155 | -51.88810 | 39062 ft | 526 kts | 72° |
| 2026-05-07 19:59 | 49.55753 | -51.78303 | 39057 ft | 524 kts | 72° |
| 2026-05-07 20:00 | 49.58366 | -51.67847 | 39071 ft | 524 kts | 72° |
| 2026-05-07 20:00 | 49.61009 | -51.57479 | 39076 ft | 524 kts | 72° |
| 2026-05-07 20:01 | 49.63705 | -51.46956 | 39074 ft | 524 kts | 72° |
| 2026-05-07 20:01 | 49.66378 | -51.36474 | 39076 ft | 524 kts | 72° |
| 2026-05-07 20:02 | 49.69017 | -51.26070 | 39086 ft | 524 kts | 72° |
| 2026-05-07 20:02 | 49.71659 | -51.15601 | 39094 ft | 524 kts | 72° |
| 2026-05-07 20:03 | 49.74288 | -51.05131 | 39095 ft | 524 kts | 72° |
| 2026-05-07 20:03 | 49.76921 | -50.94593 | 39099 ft | 523 kts | 72° |
| 2026-05-07 20:04 | 49.79535 | -50.84088 | 39110 ft | 523 kts | 72° |
| 2026-05-07 20:04 | 49.82131 | -50.73604 | 39112 ft | 521 kts | 72° |
| 2026-05-07 20:05 | 49.84715 | -50.63120 | 39118 ft | 520 kts | 72° |
| 2026-05-07 20:05 | 49.87277 | -50.52671 | 39124 ft | 520 kts | 72° |
| 2026-05-07 20:06 | 49.89839 | -50.42174 | 39127 ft | 520 kts | 72° |
| 2026-05-07 20:06 | 49.92382 | -50.31709 | 39130 ft | 520 kts | 72° |
| 2026-05-07 20:07 | 49.94928 | -50.21177 | 39126 ft | 520 kts | 73° |
| 2026-05-07 20:07 | 49.97452 | -50.10690 | 39132 ft | 519 kts | 73° |
| 2026-05-07 20:08 | 49.99969 | -50.00181 | 39141 ft | 519 kts | 73° |
| 2026-05-07 20:08 | 50.02560 | -49.89657 | 39144 ft | 520 kts | 72° |
| 2026-05-07 20:09 | 50.05210 | -49.79221 | 39144 ft | 520 kts | 71° |
| 2026-05-07 20:10 | 50.09148 | -49.63556 | 39159 ft | 520 kts | 72° |
| 2026-05-07 20:10 | 50.11756 | -49.53048 | 39159 ft | 520 kts | 72° |
| 2026-05-07 20:11 | 50.14365 | -49.42477 | 39168 ft | 520 kts | 72° |
| 2026-05-07 20:11 | 50.16934 | -49.32020 | 39165 ft | 520 kts | 72° |
| 2026-05-07 20:12 | 50.19506 | -49.21499 | 39168 ft | 519 kts | 72° |
| 2026-05-07 20:12 | 50.22090 | -49.10884 | 39170 ft | 519 kts | 72° |
| 2026-05-07 20:13 | 50.24628 | -49.00404 | 39174 ft | 519 kts | 72° |
| 2026-05-07 20:13 | 50.27175 | -48.89840 | 39176 ft | 519 kts | 72° |
| 2026-05-07 20:14 | 50.29706 | -48.79287 | 39179 ft | 518 kts | 72° |
| 2026-05-07 20:14 | 50.32219 | -48.68765 | 39186 ft | 515 kts | 72° |
| 2026-05-07 20:15 | 50.34716 | -48.58250 | 39184 ft | 515 kts | 72° |
| 2026-05-07 20:15 | 50.37201 | -48.47738 | 39189 ft | 515 kts | 72° |
| 2026-05-07 20:16 | 50.39679 | -48.37205 | 39199 ft | 515 kts | 72° |
| 2026-05-07 20:16 | 50.42151 | -48.26649 | 39197 ft | 515 kts | 72° |
| 2026-05-07 20:17 | 50.44608 | -48.16102 | 39200 ft | 515 kts | 72° |
| 2026-05-07 20:17 | 50.47058 | -48.05533 | 39200 ft | 515 kts | 72° |
| 2026-05-07 20:18 | 50.49495 | -47.94969 | 39208 ft | 515 kts | 72° |
| 2026-05-07 20:18 | 50.51931 | -47.84360 | 39213 ft | 515 kts | 72° |
| 2026-05-07 20:19 | 50.54351 | -47.73762 | 39200 ft | 515 kts | 72° |
| 2026-05-07 20:19 | 50.56736 | -47.63270 | 39205 ft | 513 kts | 72° |
| 2026-05-07 20:20 | 50.59131 | -47.52679 | 39211 ft | 512 kts | 72° |
| 2026-05-07 20:20 | 50.61525 | -47.42039 | 39211 ft | 512 kts | 72° |
| 2026-05-07 20:21 | 50.63892 | -47.31464 | 39209 ft | 512 kts | 72° |
| 2026-05-07 20:21 | 50.66253 | -47.20865 | 39211 ft | 512 kts | 72° |
| 2026-05-07 20:22 | 50.68603 | -47.10259 | 39222 ft | 512 kts | 72° |
| 2026-05-07 20:22 | 50.70929 | -46.99708 | 39219 ft | 513 kts | 72° |
| 2026-05-07 20:23 | 50.73278 | -46.88998 | 39219 ft | 513 kts | 72° |
| 2026-05-07 20:23 | 50.75603 | -46.78346 | 39219 ft | 513 kts | 72° |
| 2026-05-07 20:24 | 50.77903 | -46.67749 | 39219 ft | 513 kts | 72° |
| 2026-05-07 20:24 | 50.80206 | -46.57083 | 39224 ft | 512 kts | 71° |
| 2026-05-07 20:25 | 50.82493 | -46.46443 | 39224 ft | 511 kts | 71° |
| 2026-05-07 20:25 | 50.84771 | -46.35789 | 39224 ft | 511 kts | 71° |
| 2026-05-07 20:26 | 50.87040 | -46.25117 | 39224 ft | 511 kts | 71° |
| 2026-05-07 20:26 | 50.89298 | -46.14442 | 39233 ft | 511 kts | 71° |
| 2026-05-07 20:27 | 50.91543 | -46.03767 | 39233 ft | 511 kts | 71° |
| 2026-05-07 20:27 | 50.93779 | -45.93083 | 39233 ft | 511 kts | 72° |
| 2026-05-07 20:28 | 50.96004 | -45.82392 | 39233 ft | 511 kts | 72° |
| 2026-05-07 20:28 | 50.98220 | -45.71686 | 39236 ft | 511 kts | 72° |
| 2026-05-07 20:29 | 51.00424 | -45.60982 | 39235 ft | 510 kts | 72° |
| 2026-05-07 20:29 | 51.02619 | -45.50263 | 39234 ft | 509 kts | 71° |
| 2026-05-07 20:30 | 51.04795 | -45.39583 | 39236 ft | 508 kts | 71° |
| 2026-05-07 20:30 | 51.06959 | -45.28901 | 39241 ft | 508 kts | 71° |
| 2026-05-07 20:31 | 51.09112 | -45.18219 | 39242 ft | 507 kts | 71° |
| 2026-05-07 20:31 | 51.11255 | -45.07531 | 39241 ft | 507 kts | 71° |
| 2026-05-07 20:32 | 51.13371 | -44.96913 | 39241 ft | 507 kts | 71° |
| 2026-05-07 20:32 | 51.15494 | -44.86208 | 39244 ft | 507 kts | 71° |
| 2026-05-07 20:33 | 51.17605 | -44.75502 | 39253 ft | 507 kts | 71° |
| 2026-05-07 20:33 | 51.19710 | -44.64767 | 39243 ft | 507 kts | 71° |
| 2026-05-07 20:34 | 51.21802 | -44.54039 | 39246 ft | 507 kts | 71° |
| 2026-05-07 20:34 | 51.23884 | -44.43303 | 39244 ft | 507 kts | 71° |
| 2026-05-07 20:35 | 51.25951 | -44.32577 | 39249 ft | 504 kts | 71° |
| 2026-05-07 20:35 | 51.28001 | -44.21872 | 39250 ft | 504 kts | 71° |
| 2026-05-07 20:36 | 51.30039 | -44.11158 | 39249 ft | 504 kts | 71° |
| 2026-05-07 20:36 | 51.32066 | -44.00452 | 39249 ft | 504 kts | 71° |
| 2026-05-07 20:37 | 51.34087 | -43.89724 | 39252 ft | 504 kts | 71° |
| 2026-05-07 20:37 | 51.36100 | -43.78984 | 39269 ft | 504 kts | 71° |
| 2026-05-07 20:38 | 51.38102 | -43.68233 | 39254 ft | 505 kts | 71° |
| 2026-05-07 20:38 | 51.40101 | -43.57444 | 39254 ft | 505 kts | 71° |
| 2026-05-07 20:39 | 51.42087 | -43.46656 | 39255 ft | 505 kts | 72° |
| 2026-05-07 20:39 | 51.44065 | -43.35845 | 39257 ft | 505 kts | 72° |
| 2026-05-07 20:40 | 51.46031 | -43.25039 | 39256 ft | 505 kts | 71° |
| 2026-05-07 20:40 | 51.47985 | -43.14235 | 39256 ft | 503 kts | 71° |
| 2026-05-07 20:41 | 51.49924 | -43.03453 | 39261 ft | 502 kts | 71° |
| 2026-05-07 20:41 | 51.51852 | -42.92670 | 39259 ft | 503 kts | 72° |
| 2026-05-07 20:42 | 51.53768 | -42.81887 | 39261 ft | 503 kts | 72° |
| 2026-05-07 20:42 | 51.55674 | -42.71091 | 39262 ft | 503 kts | 72° |
| 2026-05-07 20:43 | 51.57571 | -42.60285 | 39262 ft | 502 kts | 72° |
| 2026-05-07 20:43 | 51.59461 | -42.49456 | 39265 ft | 502 kts | 72° |
| 2026-05-07 20:44 | 51.61337 | -42.38633 | 39265 ft | 502 kts | 72° |
| 2026-05-07 20:44 | 51.63207 | -42.27783 | 39269 ft | 503 kts | 72° |
| 2026-05-07 20:45 | 51.65070 | -42.16911 | 39268 ft | 504 kts | 72° |
| 2026-05-07 20:45 | 51.66607 | -42.07885 | 39271 ft | 503 kts | 72° |
| 2026-05-07 20:46 | 51.68443 | -41.97039 | 39268 ft | 501 kts | 72° |
| 2026-05-07 20:46 | 51.70270 | -41.86182 | 39273 ft | 501 kts | 72° |
| 2026-05-07 20:47 | 51.72086 | -41.75327 | 39269 ft | 502 kts | 72° |
| 2026-05-07 20:47 | 51.73898 | -41.64424 | 39272 ft | 503 kts | 72° |
| 2026-05-07 20:48 | 51.75699 | -41.53514 | 39276 ft | 503 kts | 72° |
| 2026-05-07 20:48 | 51.77488 | -41.42609 | 39277 ft | 503 kts | 72° |
| 2026-05-07 20:49 | 51.79272 | -41.31668 | 39290 ft | 503 kts | 72° |
| 2026-05-07 20:49 | 51.81044 | -41.20725 | 39283 ft | 504 kts | 72° |
| 2026-05-07 20:50 | 51.82807 | -41.09763 | 39284 ft | 504 kts | 72° |
| 2026-05-07 20:50 | 51.84562 | -40.98781 | 39281 ft | 504 kts | 72° |
| 2026-05-07 20:51 | 51.86304 | -40.87804 | 39289 ft | 504 kts | 72° |
| 2026-05-07 20:51 | 51.88033 | -40.76840 | 39288 ft | 503 kts | 72° |
| 2026-05-07 20:52 | 51.89754 | -40.65857 | 39288 ft | 503 kts | 72° |
| 2026-05-07 20:52 | 51.91464 | -40.54872 | 39290 ft | 503 kts | 72° |
| 2026-05-07 20:53 | 51.93166 | -40.43863 | 39293 ft | 504 kts | 72° |
| 2026-05-07 20:53 | 51.94856 | -40.32853 | 39321 ft | 504 kts | 72° |
| 2026-05-07 20:54 | 51.96538 | -40.21820 | 39298 ft | 505 kts | 72° |
| 2026-05-07 20:54 | 51.98215 | -40.10748 | 39307 ft | 506 kts | 72° |
| 2026-05-07 20:55 | 51.99870 | -39.99743 | 39306 ft | 506 kts | 72° |
| 2026-05-07 20:55 | 52.01526 | -39.88651 | 39307 ft | 506 kts | 72° |
| 2026-05-07 20:56 | 52.03171 | -39.77554 | 39309 ft | 506 kts | 71° |
| 2026-05-07 20:56 | 52.04810 | -39.66425 | 39310 ft | 507 kts | 71° |
| 2026-05-07 20:57 | 52.06436 | -39.55296 | 39314 ft | 506 kts | 71° |
| 2026-05-07 20:57 | 52.08050 | -39.44175 | 39316 ft | 506 kts | 71° |
| 2026-05-07 20:58 | 52.09655 | -39.33036 | 39316 ft | 506 kts | 72° |
| 2026-05-07 20:58 | 52.11249 | -39.21892 | 39317 ft | 507 kts | 71° |
| 2026-05-07 20:59 | 52.12838 | -39.10709 | 39318 ft | 507 kts | 71° |
| 2026-05-07 20:59 | 52.14414 | -38.99524 | 39322 ft | 507 kts | 71° |
| 2026-05-07 21:00 | 52.15981 | -38.88320 | 39327 ft | 507 kts | 72° |
| 2026-05-07 21:00 | 52.17538 | -38.77103 | 39339 ft | 508 kts | 71° |
| 2026-05-07 21:01 | 52.19084 | -38.65886 | 39335 ft | 508 kts | 71° |
| 2026-05-07 21:01 | 52.20621 | -38.54648 | 39334 ft | 508 kts | 72° |
| 2026-05-07 21:02 | 52.22146 | -38.43414 | 39335 ft | 508 kts | 72° |
| 2026-05-07 21:02 | 52.23661 | -38.32164 | 39337 ft | 508 kts | 72° |
| 2026-05-07 21:03 | 52.25166 | -38.20904 | 39333 ft | 508 kts | 71° |
| 2026-05-07 21:03 | 52.26663 | -38.09615 | 39333 ft | 509 kts | 72° |
| 2026-05-07 21:04 | 52.28151 | -37.98302 | 39340 ft | 509 kts | 72° |
| 2026-05-07 21:04 | 52.29626 | -37.86999 | 39338 ft | 509 kts | 72° |
| 2026-05-07 21:05 | 52.31091 | -37.75677 | 39343 ft | 509 kts | 72° |
| 2026-05-07 21:05 | 52.32547 | -37.64343 | 39344 ft | 510 kts | 72° |
| 2026-05-07 21:06 | 52.33993 | -37.52994 | 39346 ft | 510 kts | 72° |
| 2026-05-07 21:06 | 52.35426 | -37.41652 | 39348 ft | 510 kts | 72° |
| 2026-05-07 21:07 | 52.36850 | -37.30288 | 39346 ft | 510 kts | 72° |
| 2026-05-07 21:07 | 52.38250 | -37.19009 | 39350 ft | 508 kts | 72° |
| 2026-05-07 21:08 | 52.39644 | -37.07687 | 39349 ft | 507 kts | 72° |
| 2026-05-07 21:08 | 52.41029 | -36.96359 | 39350 ft | 507 kts | 72° |
| 2026-05-07 21:09 | 52.42403 | -36.85029 | 39348 ft | 507 kts | 72° |
| 2026-05-07 21:09 | 52.43766 | -36.73683 | 39357 ft | 507 kts | 72° |
| 2026-05-07 21:10 | 52.45116 | -36.62344 | 39361 ft | 507 kts | 72° |
| 2026-05-07 21:10 | 52.46455 | -36.51007 | 39356 ft | 507 kts | 72° |
| 2026-05-07 21:11 | 52.47785 | -36.39649 | 39357 ft | 507 kts | 72° |
| 2026-05-07 21:11 | 52.49758 | -36.22600 | 39355 ft | 507 kts | 72° |
| 2026-05-07 21:12 | 52.51060 | -36.11227 | 39355 ft | 507 kts | 72° |
| 2026-05-07 21:12 | 52.52348 | -35.99865 | 39360 ft | 506 kts | 72° |
| 2026-05-07 21:13 | 52.53625 | -35.88502 | 39360 ft | 506 kts | 72° |
| 2026-05-07 21:13 | 52.54889 | -35.77150 | 39361 ft | 505 kts | 72° |
| 2026-05-07 21:14 | 52.56145 | -35.65782 | 39376 ft | 506 kts | 72° |
| 2026-05-07 21:14 | 52.57392 | -35.54397 | 39360 ft | 507 kts | 72° |
| 2026-05-07 21:15 | 52.58630 | -35.42989 | 39360 ft | 507 kts | 72° |
| 2026-05-07 21:15 | 52.59856 | -35.31560 | 39360 ft | 507 kts | 72° |
| 2026-05-07 21:16 | 52.61072 | -35.20124 | 39357 ft | 507 kts | 72° |
| 2026-05-07 21:16 | 52.62276 | -35.08682 | 39366 ft | 507 kts | 72° |
| 2026-05-07 21:17 | 52.63469 | -34.97231 | 39363 ft | 508 kts | 72° |
| 2026-05-07 21:17 | 52.64653 | -34.85761 | 39362 ft | 508 kts | 72° |
| 2026-05-07 21:18 | 52.65818 | -34.74355 | 39362 ft | 508 kts | 72° |
| 2026-05-07 21:18 | 52.66984 | -34.62821 | 39360 ft | 507 kts | 72° |
| 2026-05-07 21:19 | 52.68120 | -34.51470 | 39358 ft | 504 kts | 72° |
| 2026-05-07 21:19 | 52.69249 | -34.40088 | 39363 ft | 503 kts | 72° |
| 2026-05-07 21:20 | 52.70376 | -34.28624 | 39358 ft | 503 kts | 72° |
| 2026-05-07 21:20 | 52.71478 | -34.17284 | 39360 ft | 504 kts | 72° |
| 2026-05-07 21:21 | 52.72576 | -34.05876 | 39381 ft | 504 kts | 72° |
| 2026-05-07 21:21 | 52.73657 | -33.94484 | 39365 ft | 501 kts | 72° |
| 2026-05-07 21:22 | 52.74726 | -33.83130 | 39366 ft | 501 kts | 72° |
| 2026-05-07 21:22 | 52.75784 | -33.71787 | 39361 ft | 501 kts | 72° |
| 2026-05-07 21:23 | 52.76834 | -33.60397 | 39356 ft | 501 kts | 72° |
| 2026-05-07 21:23 | 52.77871 | -33.49013 | 39373 ft | 500 kts | 72° |
| 2026-05-07 21:24 | 52.78890 | -33.37683 | 39359 ft | 497 kts | 72° |
| 2026-05-07 21:24 | 52.79897 | -33.26389 | 39355 ft | 497 kts | 72° |
| 2026-05-07 21:25 | 52.80894 | -33.15096 | 39360 ft | 497 kts | 73° |
| 2026-05-07 21:25 | 52.81882 | -33.03767 | 39360 ft | 497 kts | 73° |
| 2026-05-07 21:26 | 52.82857 | -32.92460 | 39361 ft | 496 kts | 73° |
| 2026-05-07 21:26 | 52.83818 | -32.81169 | 39357 ft | 496 kts | 73° |
| 2026-05-07 21:27 | 52.84769 | -32.69879 | 39357 ft | 495 kts | 73° |
| 2026-05-07 21:27 | 52.85709 | -32.58592 | 39358 ft | 495 kts | 73° |
| 2026-05-07 21:28 | 52.86638 | -32.47313 | 39355 ft | 496 kts | 73° |
| 2026-05-07 21:28 | 52.87549 | -32.36088 | 39358 ft | 496 kts | 73° |
| 2026-05-07 21:29 | 52.88456 | -32.24784 | 39355 ft | 496 kts | 73° |
| 2026-05-07 21:29 | 52.89354 | -32.13447 | 39362 ft | 494 kts | 73° |
| 2026-05-07 21:30 | 52.90237 | -32.02161 | 39357 ft | 494 kts | 74° |
| 2026-05-07 21:30 | 52.91110 | -31.90878 | 39363 ft | 494 kts | 75° |
| 2026-05-07 21:31 | 52.91973 | -31.79584 | 39354 ft | 494 kts | 75° |
| 2026-05-07 21:31 | 52.92825 | -31.68294 | 39353 ft | 494 kts | 75° |
| 2026-05-07 21:32 | 52.93664 | -31.57008 | 39350 ft | 494 kts | 75° |
| 2026-05-07 21:32 | 52.94353 | -31.47640 | 39350 ft | 494 kts | 75° |
| 2026-05-07 21:33 | 52.95176 | -31.36310 | 39361 ft | 494 kts | 76° |
| 2026-05-07 21:33 | 52.95990 | -31.24969 | 39346 ft | 496 kts | 76° |
| 2026-05-07 21:34 | 52.96793 | -31.13602 | 39347 ft | 496 kts | 76° |
| 2026-05-07 21:34 | 52.97585 | -31.02221 | 39344 ft | 496 kts | 76° |
| 2026-05-07 21:35 | 52.98366 | -30.90838 | 39346 ft | 497 kts | 76° |
| 2026-05-07 21:35 | 52.99138 | -30.79441 | 39346 ft | 498 kts | 76° |
| 2026-05-07 21:36 | 52.99904 | -30.67990 | 39338 ft | 500 kts | 77° |
| 2026-05-07 21:36 | 53.00658 | -30.56515 | 39338 ft | 500 kts | 77° |
| 2026-05-07 21:37 | 53.01401 | -30.45033 | 39338 ft | 500 kts | 77° |
| 2026-05-07 21:37 | 53.02133 | -30.33542 | 39335 ft | 500 kts | 77° |
| 2026-05-07 21:38 | 53.02856 | -30.22038 | 39334 ft | 502 kts | 77° |
| 2026-05-07 21:38 | 53.03572 | -30.10471 | 39334 ft | 503 kts | 77° |
| 2026-05-07 21:39 | 53.04274 | -29.98903 | 39330 ft | 504 kts | 77° |
| 2026-05-07 21:39 | 53.04961 | -29.87404 | 39323 ft | 504 kts | 77° |
| 2026-05-07 21:40 | 53.05643 | -29.75817 | 39364 ft | 504 kts | 78° |
| 2026-05-07 21:40 | 53.06314 | -29.64216 | 39317 ft | 504 kts | 78° |
| 2026-05-07 21:41 | 53.06974 | -29.52607 | 39319 ft | 504 kts | 78° |
| 2026-05-07 21:41 | 53.07623 | -29.40995 | 39319 ft | 504 kts | 78° |
| 2026-05-07 21:42 | 53.08259 | -29.29390 | 39316 ft | 504 kts | 78° |
| 2026-05-07 21:42 | 53.08886 | -29.17768 | 39335 ft | 504 kts | 79° |
| 2026-05-07 21:43 | 53.09500 | -29.06149 | 39306 ft | 504 kts | 79° |
| 2026-05-07 21:43 | 53.10106 | -28.94528 | 39308 ft | 504 kts | 79° |
| 2026-05-07 21:44 | 53.10707 | -28.82914 | 39308 ft | 504 kts | 78° |
| 2026-05-07 21:44 | 53.11300 | -28.71286 | 39303 ft | 504 kts | 79° |
| 2026-05-07 21:45 | 53.11856 | -28.59656 | 39299 ft | 504 kts | 80° |
| 2026-05-07 21:45 | 53.12404 | -28.48014 | 39296 ft | 504 kts | 80° |
| 2026-05-07 21:46 | 53.12949 | -28.36373 | 39297 ft | 504 kts | 80° |
| 2026-05-07 21:46 | 53.13485 | -28.24731 | 39297 ft | 504 kts | 80° |
| 2026-05-07 21:47 | 53.14010 | -28.13075 | 39291 ft | 505 kts | 80° |
| 2026-05-07 21:47 | 53.14523 | -28.01423 | 39290 ft | 505 kts | 81° |
| 2026-05-07 21:48 | 53.15026 | -27.89745 | 39287 ft | 505 kts | 81° |
| 2026-05-07 21:48 | 53.15513 | -27.78136 | 39287 ft | 505 kts | 81° |
| 2026-05-07 21:49 | 53.15996 | -27.66369 | 39284 ft | 505 kts | 81° |
| 2026-05-07 21:49 | 53.16461 | -27.54761 | 39300 ft | 506 kts | 82° |
| 2026-05-07 21:50 | 53.16919 | -27.43060 | 39277 ft | 507 kts | 82° |
| 2026-05-07 21:50 | 53.17365 | -27.31340 | 39276 ft | 507 kts | 82° |
| 2026-05-07 21:51 | 53.17800 | -27.19619 | 39276 ft | 507 kts | 82° |
| 2026-05-07 21:51 | 53.18223 | -27.07885 | 39274 ft | 507 kts | 82° |
| 2026-05-07 21:52 | 53.18635 | -26.96158 | 39266 ft | 507 kts | 82° |
| 2026-05-07 21:52 | 53.19036 | -26.84418 | 39266 ft | 507 kts | 82° |
| 2026-05-07 21:53 | 53.19426 | -26.72666 | 39265 ft | 508 kts | 83° |
| 2026-05-07 21:53 | 53.19804 | -26.60909 | 39265 ft | 508 kts | 83° |
| 2026-05-07 21:54 | 53.20171 | -26.49149 | 39265 ft | 508 kts | 83° |
| 2026-05-07 21:54 | 53.20528 | -26.37388 | 39264 ft | 508 kts | 83° |
| 2026-05-07 21:55 | 53.20873 | -26.25614 | 39258 ft | 508 kts | 83° |
| 2026-05-07 21:55 | 53.21205 | -26.13835 | 39259 ft | 508 kts | 83° |
| 2026-05-07 21:56 | 53.21525 | -26.02054 | 39260 ft | 508 kts | 83° |
| 2026-05-07 21:56 | 53.21834 | -25.90273 | 39278 ft | 508 kts | 83° |
| 2026-05-07 21:57 | 53.22131 | -25.78480 | 39248 ft | 509 kts | 84° |
| 2026-05-07 21:57 | 53.22417 | -25.66691 | 39256 ft | 509 kts | 84° |
| 2026-05-07 21:58 | 53.22691 | -25.54890 | 39248 ft | 509 kts | 84° |
| 2026-05-07 21:58 | 53.22954 | -25.43089 | 39245 ft | 509 kts | 84° |
| 2026-05-07 21:59 | 53.23205 | -25.31292 | 39251 ft | 509 kts | 84° |
| 2026-05-07 21:59 | 53.23444 | -25.19480 | 39243 ft | 509 kts | 84° |
| 2026-05-07 22:00 | 53.23671 | -25.07739 | 39241 ft | 510 kts | 84° |
| 2026-05-07 22:00 | 53.23887 | -24.95910 | 39241 ft | 510 kts | 84° |
| 2026-05-07 22:01 | 53.24091 | -24.84094 | 39230 ft | 510 kts | 85° |
| 2026-05-07 22:01 | 53.24284 | -24.72260 | 39241 ft | 510 kts | 85° |
| 2026-05-07 22:02 | 53.24466 | -24.60430 | 39227 ft | 510 kts | 85° |
| 2026-05-07 22:02 | 53.24635 | -24.48591 | 39227 ft | 510 kts | 85° |
| 2026-05-07 22:03 | 53.24793 | -24.36748 | 39218 ft | 510 kts | 85° |
| 2026-05-07 22:03 | 53.24939 | -24.24892 | 39218 ft | 511 kts | 85° |
| 2026-05-07 22:04 | 53.25072 | -24.13032 | 39220 ft | 511 kts | 86° |
| 2026-05-07 22:04 | 53.25194 | -24.01158 | 39211 ft | 511 kts | 86° |
| 2026-05-07 22:05 | 53.25305 | -23.89293 | 39211 ft | 511 kts | 86° |
| 2026-05-07 22:05 | 53.25404 | -23.77423 | 39205 ft | 511 kts | 86° |
| 2026-05-07 22:06 | 53.25492 | -23.65549 | 39219 ft | 511 kts | 86° |
| 2026-05-07 22:06 | 53.25567 | -23.53760 | 39207 ft | 511 kts | 86° |
| 2026-05-07 22:07 | 53.25631 | -23.41891 | 39205 ft | 511 kts | 86° |
| 2026-05-07 22:07 | 53.25684 | -23.30018 | 39195 ft | 511 kts | 87° |
| 2026-05-07 22:08 | 53.25724 | -23.18152 | 39196 ft | 511 kts | 87° |
| 2026-05-07 22:08 | 53.25753 | -23.06288 | 39197 ft | 511 kts | 87° |
| 2026-05-07 22:09 | 53.25770 | -22.94404 | 39192 ft | 512 kts | 87° |
| 2026-05-07 22:09 | 53.25775 | -22.82511 | 39183 ft | 512 kts | 88° |
| 2026-05-07 22:10 | 53.25768 | -22.70625 | 39180 ft | 512 kts | 88° |
| 2026-05-07 22:10 | 53.25750 | -22.58735 | 39179 ft | 512 kts | 88° |
| 2026-05-07 22:11 | 53.25720 | -22.46841 | 39181 ft | 512 kts | 88° |
| 2026-05-07 22:11 | 53.25678 | -22.34948 | 39179 ft | 512 kts | 88° |
| 2026-05-07 22:12 | 53.25625 | -22.23271 | 39173 ft | 512 kts | 88° |
| 2026-05-07 22:12 | 53.25558 | -22.11148 | 39173 ft | 512 kts | 88° |
| 2026-05-07 22:13 | 53.25480 | -21.99268 | 39180 ft | 512 kts | 89° |
| 2026-05-07 22:13 | 53.25391 | -21.87368 | 39170 ft | 513 kts | 89° |
| 2026-05-07 22:14 | 53.25289 | -21.75451 | 39153 ft | 513 kts | 89° |
| 2026-05-07 22:14 | 53.25177 | -21.63628 | 39160 ft | 512 kts | 89° |
| 2026-05-07 22:15 | 53.25052 | -21.51739 | 39158 ft | 512 kts | 89° |
| 2026-05-07 22:15 | 53.24915 | -21.39843 | 39159 ft | 512 kts | 89° |
| 2026-05-07 22:16 | 53.24766 | -21.27947 | 39156 ft | 512 kts | 89° |
| 2026-05-07 22:16 | 53.24606 | -21.16060 | 39153 ft | 512 kts | 89° |
| 2026-05-07 22:17 | 53.24433 | -21.04169 | 39147 ft | 512 kts | 90° |
| 2026-05-07 22:17 | 53.24249 | -20.92270 | 39160 ft | 512 kts | 90° |
| 2026-05-07 22:18 | 53.23937 | -20.74435 | 39146 ft | 513 kts | 90° |
| 2026-05-07 22:19 | 53.23719 | -20.62537 | 39141 ft | 513 kts | 90° |
| 2026-05-07 22:19 | 53.23492 | -20.50644 | 39140 ft | 513 kts | 90° |
| 2026-05-07 22:20 | 53.23255 | -20.38735 | 39134 ft | 513 kts | 91° |
| 2026-05-07 22:20 | 53.23006 | -20.26829 | 39137 ft | 514 kts | 91° |
| 2026-05-07 22:21 | 53.22744 | -20.14906 | 39130 ft | 514 kts | 91° |
| 2026-05-07 22:21 | 53.22472 | -20.02997 | 39129 ft | 514 kts | 91° |
| 2026-05-07 22:22 | 53.22235 | -19.93097 | 39123 ft | 514 kts | 91° |
| 2026-05-07 22:22 | 53.21939 | -19.81186 | 39125 ft | 514 kts | 91° |
| 2026-05-07 22:23 | 53.21631 | -19.69273 | 39123 ft | 514 kts | 92° |
| 2026-05-07 22:23 | 53.21312 | -19.57360 | 39112 ft | 514 kts | 92° |
| 2026-05-07 22:24 | 53.20981 | -19.45457 | 39111 ft | 514 kts | 92° |
| 2026-05-07 22:24 | 53.20638 | -19.33552 | 39114 ft | 514 kts | 92° |
| 2026-05-07 22:25 | 53.20283 | -19.21653 | 39113 ft | 514 kts | 92° |
| 2026-05-07 22:25 | 53.19917 | -19.09770 | 39103 ft | 513 kts | 93° |
| 2026-05-07 22:26 | 53.19528 | -18.97878 | 39108 ft | 513 kts | 93° |
| 2026-05-07 22:26 | 53.19127 | -18.85985 | 39101 ft | 513 kts | 93° |
| 2026-05-07 22:27 | 53.18725 | -18.74109 | 39103 ft | 513 kts | 93° |
| 2026-05-07 22:27 | 53.18320 | -18.62308 | 39098 ft | 513 kts | 94° |
| 2026-05-07 22:28 | 53.17895 | -18.50416 | 39097 ft | 514 kts | 94° |
| 2026-05-07 22:28 | 53.17453 | -18.38457 | 39094 ft | 514 kts | 94° |
| 2026-05-07 22:29 | 53.17007 | -18.26660 | 39100 ft | 514 kts | 94° |
| 2026-05-07 22:29 | 53.16545 | -18.14781 | 39097 ft | 514 kts | 94° |
| 2026-05-07 22:30 | 53.16086 | -18.02815 | 39086 ft | 514 kts | 94° |
| 2026-05-07 22:30 | 53.15621 | -17.91016 | 39086 ft | 514 kts | 94° |
| 2026-05-07 22:31 | 53.15129 | -17.79138 | 39081 ft | 514 kts | 94° |
| 2026-05-07 22:31 | 53.14620 | -17.67264 | 39082 ft | 514 kts | 94° |
| 2026-05-07 22:32 | 53.14099 | -17.55390 | 39080 ft | 514 kts | 95° |
| 2026-05-07 22:32 | 53.13567 | -17.43523 | 39077 ft | 514 kts | 95° |
| 2026-05-07 22:33 | 53.13022 | -17.31647 | 39077 ft | 514 kts | 95° |
| 2026-05-07 22:33 | 53.12467 | -17.19790 | 39077 ft | 514 kts | 95° |
| 2026-05-07 22:34 | 53.11899 | -17.07931 | 39073 ft | 514 kts | 95° |
| 2026-05-07 22:34 | 53.11321 | -16.96084 | 39072 ft | 513 kts | 95° |
| 2026-05-07 22:35 | 53.10730 | -16.84246 | 39067 ft | 513 kts | 95° |
| 2026-05-07 22:35 | 53.10129 | -16.72415 | 39095 ft | 513 kts | 95° |
| 2026-05-07 22:35 | 53.09823 | -16.66493 | 39231 ft | 514 kts | 95° |
| 2026-05-07 22:36 | 53.09513 | -16.60559 | 39414 ft | 514 kts | 95° |
| 2026-05-07 22:36 | 53.09202 | -16.54639 | 39605 ft | 514 kts | 95° |
| 2026-05-07 22:36 | 53.08887 | -16.48719 | 39760 ft | 513 kts | 96° |
| 2026-05-07 22:36 | 53.08571 | -16.42809 | 39966 ft | 512 kts | 96° |
| 2026-05-07 22:37 | 53.08252 | -16.36918 | 40156 ft | 512 kts | 96° |
| 2026-05-07 22:37 | 53.07929 | -16.31011 | 40303 ft | 512 kts | 96° |
| 2026-05-07 22:37 | 53.07604 | -16.25118 | 40439 ft | 512 kts | 96° |
| 2026-05-07 22:37 | 53.07276 | -16.19218 | 40588 ft | 512 kts | 96° |
| 2026-05-07 22:38 | 53.06945 | -16.13328 | 40733 ft | 512 kts | 96° |
| 2026-05-07 22:38 | 53.06611 | -16.07429 | 40881 ft | 512 kts | 96° |
| 2026-05-07 22:38 | 53.06274 | -16.01537 | 41003 ft | 512 kts | 96° |
| 2026-05-07 22:39 | 53.05589 | -15.89701 | 41059 ft | 517 kts | 96° |
| 2026-05-07 22:39 | 53.04891 | -15.77854 | 41056 ft | 519 kts | 96° |
| 2026-05-07 22:40 | 53.04177 | -15.65936 | 41058 ft | 518 kts | 96° |
| 2026-05-07 22:40 | 53.03450 | -15.54022 | 41059 ft | 518 kts | 96° |
| 2026-05-07 22:41 | 53.02712 | -15.42107 | 41055 ft | 518 kts | 96° |
| 2026-05-07 22:41 | 53.01962 | -15.30207 | 41050 ft | 517 kts | 97° |
| 2026-05-07 22:42 | 53.01203 | -15.18335 | 41050 ft | 517 kts | 97° |
| 2026-05-07 22:42 | 53.00431 | -15.06461 | 41053 ft | 517 kts | 97° |
| 2026-05-07 22:43 | 53.00044 | -14.94544 | 41044 ft | 518 kts | 91° |
| 2026-05-07 22:43 | 53.00034 | -14.82580 | 41045 ft | 518 kts | 90° |
| 2026-05-07 22:44 | 53.00076 | -14.70617 | 41044 ft | 519 kts | 90° |
| 2026-05-07 22:44 | 53.00106 | -14.58635 | 41044 ft | 519 kts | 91° |
| 2026-05-07 22:45 | 53.00113 | -14.46658 | 41040 ft | 519 kts | 91° |
| 2026-05-07 22:45 | 53.00103 | -14.34688 | 41039 ft | 519 kts | 91° |
| 2026-05-07 22:46 | 53.00081 | -14.22710 | 41039 ft | 519 kts | 91° |
| 2026-05-07 22:46 | 53.00047 | -14.10739 | 41030 ft | 519 kts | 91° |
| 2026-05-07 22:47 | 52.99857 | -13.98781 | 41037 ft | 518 kts | 96° |
| 2026-05-07 22:47 | 52.99141 | -13.86897 | 41028 ft | 517 kts | 97° |
| 2026-05-07 22:48 | 52.98321 | -13.75034 | 41030 ft | 517 kts | 98° |
| 2026-05-07 22:48 | 52.97478 | -13.63184 | 41034 ft | 517 kts | 98° |
| 2026-05-07 22:49 | 52.96631 | -13.51345 | 41016 ft | 517 kts | 98° |
| 2026-05-07 22:49 | 52.95778 | -13.39493 | 41023 ft | 517 kts | 98° |
| 2026-05-07 22:50 | 52.94920 | -13.27728 | 41023 ft | 517 kts | 98° |
| 2026-05-07 22:50 | 52.94044 | -13.15885 | 41023 ft | 517 kts | 98° |
| 2026-05-07 22:51 | 52.93156 | -13.04053 | 41018 ft | 517 kts | 98° |
| 2026-05-07 22:51 | 52.92257 | -12.92222 | 41018 ft | 517 kts | 98° |
| 2026-05-07 22:52 | 52.91346 | -12.80402 | 41018 ft | 517 kts | 99° |
| 2026-05-07 22:52 | 52.90423 | -12.68586 | 41017 ft | 517 kts | 99° |
| 2026-05-07 22:53 | 52.89489 | -12.56774 | 41018 ft | 517 kts | 99° |
| 2026-05-07 22:53 | 52.88542 | -12.44968 | 41017 ft | 517 kts | 99° |
| 2026-05-07 22:54 | 52.87585 | -12.33170 | 41015 ft | 517 kts | 99° |
| 2026-05-07 22:54 | 52.86615 | -12.21375 | 41015 ft | 517 kts | 99° |
| 2026-05-07 22:55 | 52.85635 | -12.09593 | 41013 ft | 517 kts | 99° |
| 2026-05-07 22:55 | 52.84643 | -11.97818 | 41009 ft | 517 kts | 99° |
| 2026-05-07 22:56 | 52.83639 | -11.86045 | 41006 ft | 517 kts | 99° |
| 2026-05-07 22:56 | 52.82624 | -11.74286 | 41007 ft | 517 kts | 100° |
| 2026-05-07 22:57 | 52.81598 | -11.62537 | 41005 ft | 517 kts | 100° |
| 2026-05-07 22:57 | 52.80560 | -11.50794 | 41004 ft | 516 kts | 100° |
| 2026-05-07 22:58 | 52.79512 | -11.39064 | 41004 ft | 516 kts | 100° |
| 2026-05-07 22:58 | 52.78452 | -11.27350 | 41001 ft | 516 kts | 100° |
| 2026-05-07 22:59 | 52.77380 | -11.15628 | 41001 ft | 516 kts | 100° |
| 2026-05-07 22:59 | 52.76305 | -11.04006 | 41011 ft | 516 kts | 100° |
| 2026-05-07 23:00 | 52.75212 | -10.92309 | 41009 ft | 515 kts | 101° |
| 2026-05-07 23:00 | 52.74106 | -10.80617 | 41002 ft | 516 kts | 101° |
| 2026-05-07 23:01 | 52.72989 | -10.68930 | 40999 ft | 516 kts | 101° |
| 2026-05-07 23:01 | 52.71862 | -10.57257 | 41000 ft | 515 kts | 101° |
| 2026-05-07 23:02 | 52.70723 | -10.45594 | 40996 ft | 515 kts | 101° |
| 2026-05-07 23:02 | 52.69572 | -10.33927 | 40996 ft | 515 kts | 101° |
| 2026-05-07 23:03 | 52.68410 | -10.22276 | 40995 ft | 515 kts | 101° |
| 2026-05-07 23:03 | 52.67237 | -10.10623 | 40994 ft | 515 kts | 101° |
| 2026-05-07 23:04 | 52.66053 | -9.98990 | 40993 ft | 515 kts | 101° |
| 2026-05-07 23:04 | 52.64856 | -9.87346 | 40997 ft | 515 kts | 101° |
| 2026-05-07 23:05 | 52.63648 | -9.75718 | 40988 ft | 515 kts | 102° |
| 2026-05-07 23:05 | 52.62438 | -9.64172 | 40994 ft | 515 kts | 102° |
| 2026-05-07 23:06 | 52.61207 | -9.52557 | 40993 ft | 515 kts | 102° |
| 2026-05-07 23:06 | 52.59968 | -9.40962 | 40996 ft | 514 kts | 102° |
| 2026-05-07 23:07 | 52.58717 | -9.29383 | 40998 ft | 514 kts | 102° |
| 2026-05-07 23:07 | 52.57455 | -9.17806 | 40994 ft | 514 kts | 102° |
| 2026-05-07 23:08 | 52.56182 | -9.06247 | 40995 ft | 514 kts | 102° |
| 2026-05-07 23:08 | 52.54899 | -8.94689 | 40996 ft | 514 kts | 102° |
| 2026-05-07 23:09 | 52.53606 | -8.83157 | 40996 ft | 513 kts | 102° |
| 2026-05-07 23:09 | 52.52303 | -8.71642 | 40996 ft | 513 kts | 102° |
| 2026-05-07 23:10 | 52.50988 | -8.60129 | 40997 ft | 513 kts | 102° |
| 2026-05-07 23:10 | 52.49662 | -8.48629 | 40994 ft | 513 kts | 103° |
| 2026-05-07 23:11 | 52.48553 | -8.39077 | 40998 ft | 512 kts | 103° |
| 2026-05-07 23:11 | 52.47209 | -8.27603 | 40991 ft | 512 kts | 103° |
| 2026-05-07 23:12 | 52.45855 | -8.16149 | 41003 ft | 512 kts | 103° |
| 2026-05-07 23:12 | 52.44490 | -8.04703 | 41004 ft | 512 kts | 103° |
| 2026-05-07 23:13 | 52.43114 | -7.93262 | 41005 ft | 511 kts | 103° |
| 2026-05-07 23:13 | 52.41729 | -7.81844 | 41007 ft | 511 kts | 103° |
| 2026-05-07 23:14 | 52.40333 | -7.70430 | 41008 ft | 511 kts | 103° |
| 2026-05-07 23:14 | 52.38927 | -7.59037 | 41007 ft | 511 kts | 103° |
| 2026-05-07 23:15 | 52.37509 | -7.47640 | 41008 ft | 511 kts | 103° |
| 2026-05-07 23:15 | 52.36080 | -7.36258 | 41010 ft | 510 kts | 103° |
| 2026-05-07 23:16 | 52.34642 | -7.24888 | 41016 ft | 510 kts | 103° |
| 2026-05-07 23:16 | 52.33194 | -7.13534 | 41012 ft | 510 kts | 104° |
| 2026-05-07 23:17 | 52.31734 | -7.02184 | 41013 ft | 510 kts | 104° |
| 2026-05-07 23:17 | 52.30275 | -6.90928 | 41011 ft | 510 kts | 104° |
| 2026-05-07 23:18 | 52.28795 | -6.79597 | 41016 ft | 509 kts | 104° |
| 2026-05-07 23:18 | 52.27307 | -6.68300 | 41017 ft | 509 kts | 104° |
| 2026-05-07 23:19 | 52.25807 | -6.57004 | 41018 ft | 509 kts | 104° |
| 2026-05-07 23:19 | 52.24296 | -6.45710 | 41018 ft | 509 kts | 104° |
| 2026-05-07 23:20 | 52.22775 | -6.34436 | 41021 ft | 509 kts | 104° |
| 2026-05-07 23:20 | 52.21244 | -6.23170 | 41023 ft | 509 kts | 104° |
| 2026-05-07 23:21 | 52.19704 | -6.11922 | 41020 ft | 508 kts | 104° |
| 2026-05-07 23:21 | 52.18153 | -6.00680 | 41022 ft | 508 kts | 104° |
| 2026-05-07 23:22 | 52.16591 | -5.89447 | 41024 ft | 508 kts | 104° |
| 2026-05-07 23:22 | 52.15105 | -5.78193 | 41028 ft | 509 kts | 101° |
| 2026-05-07 23:23 | 52.14092 | -5.66782 | 41025 ft | 510 kts | 99° |
| 2026-05-07 23:23 | 52.13154 | -5.55353 | 41032 ft | 509 kts | 99° |
| 2026-05-07 23:24 | 52.12139 | -5.43955 | 41030 ft | 509 kts | 100° |
| 2026-05-07 23:24 | 52.11066 | -5.32568 | 41032 ft | 509 kts | 100° |
| 2026-05-07 23:25 | 52.09971 | -5.21185 | 41033 ft | 509 kts | 101° |
| 2026-05-07 23:25 | 52.08866 | -5.09811 | 41035 ft | 509 kts | 101° |
| 2026-05-07 23:26 | 52.07754 | -4.98450 | 41035 ft | 509 kts | 101° |
| 2026-05-07 23:26 | 52.06631 | -4.87085 | 41037 ft | 509 kts | 101° |
| 2026-05-07 23:27 | 52.04936 | -4.70141 | 41037 ft | 509 kts | 101° |
| 2026-05-07 23:27 | 52.03787 | -4.58810 | 41037 ft | 509 kts | 101° |
| 2026-05-07 23:28 | 52.02628 | -4.47477 | 41040 ft | 509 kts | 101° |
| 2026-05-07 23:28 | 52.01457 | -4.36151 | 41036 ft | 508 kts | 101° |
| 2026-05-07 23:29 | 52.00277 | -4.24845 | 41037 ft | 508 kts | 101° |
| 2026-05-07 23:29 | 51.99088 | -4.13558 | 41041 ft | 508 kts | 101° |
| 2026-05-07 23:30 | 51.97886 | -4.02268 | 41041 ft | 508 kts | 101° |
| 2026-05-07 23:30 | 51.96674 | -3.90990 | 41043 ft | 508 kts | 101° |
| 2026-05-07 23:31 | 51.95452 | -3.79718 | 41051 ft | 507 kts | 101° |
| 2026-05-07 23:31 | 51.94220 | -3.68458 | 41047 ft | 507 kts | 101° |
| 2026-05-07 23:32 | 51.92976 | -3.57205 | 41047 ft | 507 kts | 102° |
| 2026-05-07 23:32 | 51.91724 | -3.45967 | 41050 ft | 507 kts | 102° |
| 2026-05-07 23:33 | 51.90459 | -3.34729 | 41055 ft | 507 kts | 102° |
| 2026-05-07 23:33 | 51.89186 | -3.23509 | 41065 ft | 507 kts | 102° |
| 2026-05-07 23:34 | 51.87902 | -3.12293 | 41066 ft | 507 kts | 102° |
| 2026-05-07 23:34 | 51.86608 | -3.01096 | 41071 ft | 507 kts | 102° |
| 2026-05-07 23:35 | 51.85302 | -2.89894 | 41069 ft | 507 kts | 102° |
| 2026-05-07 23:35 | 51.83986 | -2.78700 | 41050 ft | 506 kts | 102° |
| 2026-05-07 23:36 | 51.82661 | -2.67524 | 41052 ft | 506 kts | 102° |
| 2026-05-07 23:36 | 51.81325 | -2.56353 | 41053 ft | 506 kts | 102° |
| 2026-05-07 23:37 | 51.79977 | -2.45182 | 41055 ft | 506 kts | 102° |
| 2026-05-07 23:37 | 51.78621 | -2.34026 | 41053 ft | 506 kts | 103° |
| 2026-05-07 23:38 | 51.77252 | -2.22870 | 41056 ft | 506 kts | 103° |
| 2026-05-07 23:38 | 51.75875 | -2.11733 | 41063 ft | 506 kts | 103° |
| 2026-05-07 23:39 | 51.74486 | -2.00597 | 41061 ft | 506 kts | 103° |
| 2026-05-07 23:39 | 51.73088 | -1.89474 | 41069 ft | 506 kts | 103° |
| 2026-05-07 23:40 | 51.71688 | -1.78429 | 41064 ft | 506 kts | 103° |
| 2026-05-07 23:40 | 51.70260 | -1.67253 | 41075 ft | 506 kts | 103° |
| 2026-05-07 23:41 | 51.68766 | -1.56257 | 41076 ft | 505 kts | 104° |
| 2026-05-07 23:41 | 51.67198 | -1.45221 | 41075 ft | 505 kts | 104° |
| 2026-05-07 23:42 | 51.65627 | -1.34188 | 41076 ft | 505 kts | 104° |
| 2026-05-07 23:42 | 51.64059 | -1.23164 | 41076 ft | 505 kts | 104° |
| 2026-05-07 23:43 | 51.62484 | -1.12140 | 41076 ft | 505 kts | 104° |
| 2026-05-07 23:43 | 51.60900 | -1.01127 | 41076 ft | 505 kts | 104° |
| 2026-05-07 23:44 | 51.59305 | -0.90124 | 41079 ft | 505 kts | 104° |
| 2026-05-07 23:44 | 51.57705 | -0.79160 | 41077 ft | 505 kts | 105° |
| 2026-05-07 23:45 | 51.56090 | -0.68179 | 41080 ft | 505 kts | 105° |
| 2026-05-07 23:45 | 51.54466 | -0.57209 | 41073 ft | 505 kts | 105° |
| 2026-05-07 23:46 | 51.52843 | -0.46321 | 41078 ft | 505 kts | 105° |
| 2026-05-07 23:46 | 51.51198 | -0.35368 | 41082 ft | 505 kts | 105° |
| 2026-05-07 23:47 | 51.49545 | -0.24430 | 41085 ft | 505 kts | 105° |
| 2026-05-07 23:47 | 51.47879 | -0.13486 | 41085 ft | 505 kts | 105° |
| 2026-05-07 23:48 | 51.46203 | -0.02554 | 41086 ft | 505 kts | 105° |
| 2026-05-07 23:48 | 51.44520 | 0.08355 | 41104 ft | 505 kts | 105° |
| 2026-05-07 23:49 | 51.42824 | 0.19270 | 41098 ft | 505 kts | 105° |
| 2026-05-07 23:49 | 51.41117 | 0.30184 | 41092 ft | 505 kts | 105° |
| 2026-05-07 23:50 | 51.39403 | 0.41076 | 41077 ft | 505 kts | 106° |
| 2026-05-07 23:50 | 51.37676 | 0.51972 | 41090 ft | 505 kts | 106° |
| 2026-05-07 23:51 | 51.35940 | 0.62852 | 41103 ft | 505 kts | 106° |
| 2026-05-07 23:51 | 51.34194 | 0.73728 | 41096 ft | 505 kts | 106° |
| 2026-05-07 23:52 | 51.32437 | 0.84601 | 41029 ft | 505 kts | 106° |
| 2026-05-07 23:52 | 51.30671 | 0.95455 | 41083 ft | 505 kts | 106° |
| 2026-05-07 23:53 | 51.28894 | 1.06310 | 41093 ft | 505 kts | 106° |
| 2026-05-07 23:53 | 51.27107 | 1.17155 | 41095 ft | 505 kts | 106° |
| 2026-05-07 23:54 | 51.25310 | 1.27990 | 41094 ft | 505 kts | 107° |
| 2026-05-07 23:54 | 51.23503 | 1.38823 | 41091 ft | 505 kts | 107° |
| 2026-05-07 23:55 | 51.21686 | 1.49640 | 41092 ft | 505 kts | 107° |
| 2026-05-07 23:55 | 51.19858 | 1.60455 | 41092 ft | 505 kts | 107° |
| 2026-05-07 23:56 | 51.18020 | 1.71263 | 41094 ft | 505 kts | 107° |
| 2026-05-07 23:56 | 51.16174 | 1.82056 | 41094 ft | 505 kts | 107° |
| 2026-05-07 23:57 | 51.14317 | 1.92840 | 41095 ft | 505 kts | 107° |
| 2026-05-07 23:57 | 51.12929 | 2.03807 | 41101 ft | 507 kts | 98° |
| 2026-05-07 23:58 | 51.12339 | 2.13088 | 41099 ft | 508 kts | 96° |
| 2026-05-07 23:58 | 51.11743 | 2.24293 | 41098 ft | 508 kts | 96° |
| 2026-05-07 23:59 | 51.11153 | 2.35494 | 41092 ft | 508 kts | 96° |
| 2026-05-07 23:59 | 51.10435 | 2.48502 | 41092 ft | 508 kts | 96° |
| 2026-05-08 00:00 | 51.09900 | 2.57875 | 41094 ft | 508 kts | 96° |
| 2026-05-08 00:00 | 51.08745 | 2.68924 | 41095 ft | 505 kts | 106° |
| 2026-05-08 00:01 | 51.06911 | 2.79627 | 41092 ft | 505 kts | 108° |
| 2026-05-08 00:01 | 51.04944 | 2.90353 | 41099 ft | 505 kts | 108° |
| 2026-05-08 00:02 | 51.02960 | 3.01064 | 41098 ft | 506 kts | 108° |
| 2026-05-08 00:02 | 51.00979 | 3.11782 | 41081 ft | 506 kts | 108° |
| 2026-05-08 00:03 | 50.98998 | 3.22483 | 41081 ft | 506 kts | 108° |
| 2026-05-08 00:03 | 50.97019 | 3.33125 | 41078 ft | 506 kts | 108° |
| 2026-05-08 00:04 | 50.95220 | 3.42736 | 41080 ft | 506 kts | 108° |
| 2026-05-08 00:04 | 50.93209 | 3.53428 | 41080 ft | 506 kts | 108° |
| 2026-05-08 00:05 | 50.91189 | 3.64105 | 41080 ft | 506 kts | 108° |
| 2026-05-08 00:05 | 50.89159 | 3.74780 | 41080 ft | 506 kts | 108° |
| 2026-05-08 00:06 | 50.87120 | 3.85436 | 41083 ft | 506 kts | 108° |
| 2026-05-08 00:06 | 50.85070 | 3.96092 | 41088 ft | 506 kts | 109° |
| 2026-05-08 00:07 | 50.83010 | 4.06742 | 41091 ft | 506 kts | 109° |
| 2026-05-08 00:07 | 50.80943 | 4.17369 | 41097 ft | 506 kts | 109° |
| 2026-05-08 00:08 | 50.78864 | 4.28002 | 41099 ft | 506 kts | 109° |
| 2026-05-08 00:08 | 50.76775 | 4.38622 | 41100 ft | 506 kts | 109° |
| 2026-05-08 00:09 | 50.74677 | 4.49229 | 41095 ft | 506 kts | 109° |
| 2026-05-08 00:09 | 50.72569 | 4.59830 | 41097 ft | 506 kts | 109° |
| 2026-05-08 00:10 | 50.70452 | 4.70422 | 41086 ft | 506 kts | 109° |
| 2026-05-08 00:10 | 50.68323 | 4.81012 | 41094 ft | 506 kts | 109° |
| 2026-05-08 00:11 | 50.66186 | 4.91587 | 41094 ft | 506 kts | 109° |
| 2026-05-08 00:11 | 50.64034 | 5.02154 | 41094 ft | 506 kts | 109° |
| 2026-05-08 00:12 | 50.61858 | 5.12697 | 41089 ft | 506 kts | 110° |
| 2026-05-08 00:12 | 50.59672 | 5.23235 | 41094 ft | 506 kts | 110° |
| 2026-05-08 00:13 | 50.57494 | 5.33700 | 41092 ft | 506 kts | 110° |
| 2026-05-08 00:13 | 50.55292 | 5.44226 | 41099 ft | 506 kts | 110° |
| 2026-05-08 00:14 | 50.53083 | 5.54734 | 41100 ft | 507 kts | 110° |
| 2026-05-08 00:14 | 50.50874 | 5.65247 | 41094 ft | 507 kts | 109° |
| 2026-05-08 00:15 | 50.48909 | 5.75890 | 41106 ft | 508 kts | 107° |
| 2026-05-08 00:15 | 50.47041 | 5.86582 | 41105 ft | 508 kts | 107° |
| 2026-05-08 00:16 | 50.45132 | 5.97251 | 41105 ft | 508 kts | 107° |
| 2026-05-08 00:16 | 50.43183 | 6.07896 | 41101 ft | 508 kts | 108° |
| 2026-05-08 00:17 | 50.41214 | 6.18525 | 41102 ft | 508 kts | 108° |
| 2026-05-08 00:17 | 50.39234 | 6.29155 | 41100 ft | 508 kts | 108° |
| 2026-05-08 00:18 | 50.37247 | 6.39772 | 41099 ft | 508 kts | 108° |
| 2026-05-08 00:18 | 50.35249 | 6.50388 | 41089 ft | 508 kts | 108° |
| 2026-05-08 00:19 | 50.33241 | 6.60997 | 41091 ft | 508 kts | 108° |
| 2026-05-08 00:19 | 50.31224 | 6.71597 | 41080 ft | 508 kts | 108° |
| 2026-05-08 00:20 | 50.29197 | 6.82187 | 41079 ft | 508 kts | 108° |
| 2026-05-08 00:20 | 50.27160 | 6.92768 | 41077 ft | 508 kts | 108° |
| 2026-05-08 00:21 | 50.25113 | 7.03342 | 41080 ft | 508 kts | 108° |
| 2026-05-08 00:21 | 50.23057 | 7.13909 | 41074 ft | 508 kts | 108° |
| 2026-05-08 00:22 | 50.20990 | 7.24467 | 41071 ft | 509 kts | 108° |
| 2026-05-08 00:22 | 50.18914 | 7.35023 | 41075 ft | 509 kts | 108° |
| 2026-05-08 00:23 | 50.16826 | 7.45572 | 41085 ft | 509 kts | 109° |
| 2026-05-08 00:23 | 50.14727 | 7.56124 | 41099 ft | 510 kts | 109° |
| 2026-05-08 00:24 | 50.12620 | 7.66662 | 41099 ft | 510 kts | 109° |
| 2026-05-08 00:24 | 50.10499 | 7.77206 | 41102 ft | 510 kts | 109° |
| 2026-05-08 00:25 | 50.08371 | 7.87732 | 41103 ft | 510 kts | 109° |
| 2026-05-08 00:25 | 50.06232 | 7.98254 | 41105 ft | 510 kts | 109° |
| 2026-05-08 00:26 | 50.04084 | 8.08765 | 41102 ft | 510 kts | 109° |
| 2026-05-08 00:26 | 50.01928 | 8.19259 | 41101 ft | 510 kts | 109° |
| 2026-05-08 00:27 | 49.99760 | 8.29757 | 41100 ft | 510 kts | 109° |
| 2026-05-08 00:27 | 49.97600 | 8.40163 | 41101 ft | 510 kts | 109° |
| 2026-05-08 00:28 | 49.95390 | 8.50496 | 41102 ft | 509 kts | 113° |
| 2026-05-08 00:28 | 49.92201 | 8.60284 | 41101 ft | 507 kts | 121° |
| 2026-05-08 00:29 | 49.88733 | 8.69771 | 41094 ft | 507 kts | 122° |
| 2026-05-08 00:29 | 49.85207 | 8.79236 | 41090 ft | 507 kts | 122° |
| 2026-05-08 00:30 | 49.81675 | 8.88683 | 41097 ft | 507 kts | 122° |
| 2026-05-08 00:30 | 49.78148 | 8.98133 | 41093 ft | 507 kts | 122° |
| 2026-05-08 00:31 | 49.74604 | 9.07601 | 41091 ft | 507 kts | 122° |
| 2026-05-08 00:31 | 49.71058 | 9.17036 | 41103 ft | 507 kts | 122° |
| 2026-05-08 00:32 | 49.67505 | 9.26460 | 41106 ft | 508 kts | 122° |
| 2026-05-08 00:32 | 49.63971 | 9.35804 | 41089 ft | 508 kts | 122° |
| 2026-05-08 00:33 | 49.59945 | 9.44676 | 41089 ft | 504 kts | 132° |
| 2026-05-08 00:33 | 49.55383 | 9.52887 | 41092 ft | 504 kts | 134° |
| 2026-05-08 00:34 | 49.50745 | 9.60965 | 40742 ft | 502 kts | 134° |
| 2026-05-08 00:34 | 49.48427 | 9.64986 | 40017 ft | 503 kts | 134° |
| 2026-05-08 00:34 | 49.46098 | 9.69026 | 39231 ft | 507 kts | 134° |
| 2026-05-08 00:35 | 49.43753 | 9.73096 | 38407 ft | 510 kts | 134° |
| 2026-05-08 00:35 | 49.41401 | 9.77180 | 37472 ft | 512 kts | 134° |
| 2026-05-08 00:35 | 49.39041 | 9.81277 | 36602 ft | 512 kts | 134° |
| 2026-05-08 00:35 | 49.36686 | 9.85362 | 35876 ft | 510 kts | 134° |
| 2026-05-08 00:36 | 49.34332 | 9.89434 | 35148 ft | 509 kts | 134° |
| 2026-05-08 00:36 | 49.31989 | 9.93476 | 34523 ft | 506 kts | 134° |
| 2026-05-08 00:36 | 49.29657 | 9.97490 | 33918 ft | 502 kts | 134° |
| 2026-05-08 00:36 | 49.27346 | 10.01461 | 33334 ft | 497 kts | 134° |
| 2026-05-08 00:37 | 49.25057 | 10.05390 | 32760 ft | 491 kts | 134° |
| 2026-05-08 00:37 | 49.22795 | 10.09266 | 32225 ft | 486 kts | 134° |
| 2026-05-08 00:37 | 49.20553 | 10.13102 | 31679 ft | 481 kts | 134° |
| 2026-05-08 00:38 | 49.16133 | 10.20664 | 30623 ft | 472 kts | 134° |
| 2026-05-08 00:38 | 49.13952 | 10.24386 | 30073 ft | 469 kts | 134° |
| 2026-05-08 00:38 | 49.11766 | 10.28037 | 29498 ft | 463 kts | 135° |
| 2026-05-08 00:38 | 49.09565 | 10.31589 | 28993 ft | 457 kts | 135° |
| 2026-05-08 00:39 | 49.07375 | 10.35070 | 28476 ft | 452 kts | 136° |
| 2026-05-08 00:39 | 49.05206 | 10.38505 | 27938 ft | 447 kts | 136° |
| 2026-05-08 00:39 | 49.03067 | 10.41898 | 27436 ft | 442 kts | 136° |
| 2026-05-08 00:39 | 49.00953 | 10.45260 | 26950 ft | 437 kts | 135° |
| 2026-05-08 00:40 | 48.98864 | 10.48596 | 26446 ft | 433 kts | 135° |
| 2026-05-08 00:40 | 48.96793 | 10.51898 | 25945 ft | 429 kts | 135° |
| 2026-05-08 00:40 | 48.94739 | 10.55165 | 25423 ft | 425 kts | 135° |
| 2026-05-08 00:40 | 48.92704 | 10.58400 | 24931 ft | 422 kts | 135° |
| 2026-05-08 00:41 | 48.90709 | 10.61569 | 24418 ft | 419 kts | 135° |
| 2026-05-08 00:41 | 48.88702 | 10.64753 | 23924 ft | 416 kts | 135° |
| 2026-05-08 00:41 | 48.86710 | 10.67912 | 23356 ft | 413 kts | 135° |
| 2026-05-08 00:41 | 48.84736 | 10.71039 | 22824 ft | 408 kts | 135° |
| 2026-05-08 00:42 | 48.82783 | 10.74130 | 22315 ft | 403 kts | 135° |
| 2026-05-08 00:42 | 48.80853 | 10.77182 | 21795 ft | 399 kts | 135° |
| 2026-05-08 00:42 | 48.78944 | 10.80201 | 21300 ft | 394 kts | 136° |
| 2026-05-08 00:42 | 48.77052 | 10.83175 | 20810 ft | 390 kts | 136° |
| 2026-05-08 00:43 | 48.75176 | 10.86113 | 20309 ft | 386 kts | 136° |
| 2026-05-08 00:43 | 48.73318 | 10.89017 | 19822 ft | 382 kts | 136° |
| 2026-05-08 00:43 | 48.71472 | 10.91900 | 19321 ft | 379 kts | 136° |
| 2026-05-08 00:43 | 48.69645 | 10.94750 | 18837 ft | 376 kts | 136° |
| 2026-05-08 00:44 | 48.67830 | 10.97590 | 18338 ft | 373 kts | 136° |
| 2026-05-08 00:44 | 48.66029 | 11.00397 | 17809 ft | 370 kts | 136° |
| 2026-05-08 00:44 | 48.64245 | 11.03167 | 17331 ft | 366 kts | 136° |
| 2026-05-08 00:44 | 48.62480 | 11.05905 | 16843 ft | 361 kts | 136° |
| 2026-05-08 00:45 | 48.60736 | 11.08607 | 16383 ft | 358 kts | 136° |
| 2026-05-08 00:45 | 48.59003 | 11.11274 | 15922 ft | 353 kts | 137° |
| 2026-05-08 00:45 | 48.57119 | 11.13604 | 15451 ft | 348 kts | 146° |
| 2026-05-08 00:45 | 48.55164 | 11.15717 | 14990 ft | 344 kts | 146° |
| 2026-05-08 00:46 | 48.53472 | 11.18180 | 14548 ft | 345 kts | 129° |
| 2026-05-08 00:46 | 48.52401 | 11.21342 | 14067 ft | 345 kts | 108° |
| 2026-05-08 00:46 | 48.52133 | 11.24916 | 13590 ft | 344 kts | 86° |
| 2026-05-08 00:46 | 48.52517 | 11.28457 | 13124 ft | 341 kts | 77° |
| 2026-05-08 00:47 | 48.53029 | 11.31890 | 12662 ft | 339 kts | 77° |
| 2026-05-08 00:47 | 48.53541 | 11.35312 | 12142 ft | 338 kts | 77° |
| 2026-05-08 00:47 | 48.53877 | 11.37597 | 11828 ft | 336 kts | 77° |
| 2026-05-08 00:47 | 48.54373 | 11.41023 | 11362 ft | 333 kts | 77° |
| 2026-05-08 00:48 | 48.54861 | 11.44425 | 10915 ft | 330 kts | 77° |
| 2026-05-08 00:48 | 48.55341 | 11.47805 | 10463 ft | 329 kts | 77° |
| 2026-05-08 00:48 | 48.55818 | 11.51170 | 10019 ft | 327 kts | 77° |
| 2026-05-08 00:48 | 48.56297 | 11.54569 | 9742 ft | 339 kts | 77° |
| 2026-05-08 00:49 | 48.56733 | 11.58103 | 9557 ft | 345 kts | 84° |
| 2026-05-08 00:49 | 48.56566 | 11.61682 | 9344 ft | 342 kts | 105° |
| 2026-05-08 00:49 | 48.55852 | 11.65098 | 9138 ft | 341 kts | 110° |
| 2026-05-08 00:49 | 48.55061 | 11.68463 | 8931 ft | 339 kts | 110° |
| 2026-05-08 00:50 | 48.54275 | 11.71816 | 8587 ft | 338 kts | 110° |
| 2026-05-08 00:50 | 48.53500 | 11.75146 | 8213 ft | 335 kts | 110° |
| 2026-05-08 00:50 | 48.52744 | 11.78406 | 7851 ft | 333 kts | 110° |
| 2026-05-08 00:50 | 48.51982 | 11.81697 | 7492 ft | 332 kts | 110° |
| 2026-05-08 00:51 | 48.51271 | 11.84770 | 7140 ft | 329 kts | 110° |
| 2026-05-08 00:51 | 48.50519 | 11.88013 | 6783 ft | 327 kts | 110° |
| 2026-05-08 00:51 | 48.49771 | 11.91242 | 6407 ft | 325 kts | 110° |
| 2026-05-08 00:51 | 48.49028 | 11.94443 | 6031 ft | 322 kts | 110° |
| 2026-05-08 00:52 | 48.48294 | 11.97602 | 5739 ft | 314 kts | 110° |
| 2026-05-08 00:52 | 48.47599 | 12.00591 | 5602 ft | 298 kts | 110° |
| 2026-05-08 00:52 | 48.46932 | 12.03455 | 5461 ft | 283 kts | 110° |
| 2026-05-08 00:52 | 48.46291 | 12.06203 | 5341 ft | 273 kts | 110° |
| 2026-05-08 00:53 | 48.45690 | 12.08698 | 5252 ft | 259 kts | 113° |
| 2026-05-08 00:53 | 48.44710 | 12.10825 | 5167 ft | 241 kts | 142° |
| 2026-05-08 00:53 | 48.43261 | 12.11847 | 5074 ft | 224 kts | 172° |
| 2026-05-08 00:53 | 48.41785 | 12.11704 | 4983 ft | 208 kts | 199° |
| 2026-05-08 00:54 | 48.40506 | 12.10850 | 4974 ft | 195 kts | 208° |
| 2026-05-08 00:54 | 48.39397 | 12.09726 | 4863 ft | 191 kts | 232° |
| 2026-05-08 00:54 | 48.38801 | 12.08049 | 4784 ft | 176 kts | 252° |
| 2026-05-08 00:54 | 48.38574 | 12.06276 | 4582 ft | 169 kts | 263° |
| 2026-05-08 00:55 | 48.38437 | 12.04572 | 4429 ft | 159 kts | 261° |
| 2026-05-08 00:55 | 48.38292 | 12.02943 | 4249 ft | 156 kts | 262° |
| 2026-05-08 00:55 | 48.38165 | 12.01330 | 4033 ft | 154 kts | 262° |
| 2026-05-08 00:55 | 48.38044 | 11.99795 | 3825 ft | 148 kts | 262° |
| 2026-05-08 00:56 | 48.37927 | 11.98298 | 3622 ft | 142 kts | 262° |
| 2026-05-08 00:56 | 48.37813 | 11.96828 | 3442 ft | 139 kts | 263° |
| 2026-05-08 00:56 | 48.37702 | 11.95381 | 3255 ft | 140 kts | 263° |
| 2026-05-08 00:56 | 48.37591 | 11.93930 | 3075 ft | 140 kts | 263° |
| 2026-05-08 00:57 | 48.37479 | 11.92476 | 2883 ft | 140 kts | 263° |
| 2026-05-08 00:57 | 48.37366 | 11.91023 | 2714 ft | 140 kts | 263° |
| 2026-05-08 00:57 | 48.37260 | 11.89561 | 2512 ft | 140 kts | 264° |
| 2026-05-08 00:57 | 48.37161 | 11.88106 | 2316 ft | 140 kts | 264° |
| 2026-05-08 00:58 | 48.37044 | 11.86658 | 2107 ft | 138 kts | 263° |
| 2026-05-08 00:58 | 48.36927 | 11.85221 | 1952 ft | 139 kts | 262° |
| 2026-05-08 00:58 | 48.36809 | 11.83791 | 1748 ft | 137 kts | 262° |
| 2026-05-08 00:58 | 48.36704 | 11.82368 | 1569 ft | 137 kts | 263° |
| 2026-05-08 00:59 | 48.36599 | 11.80998 | 1479 ft | 111 kts | 264° |
| 2026-05-08 00:59 | 48.36542 | 11.80249 | 1492 ft | 42 kts | 263° |
| 2026-05-08 00:59 | 48.36512 | 11.79892 | 1476 ft | 21 kts | 257° |
| 2026-05-08 00:59 | 48.36442 | 11.79694 | 1476 ft | 22 kts | 235° |
| 2026-05-08 01:00 | 48.36352 | 11.79503 | 1478 ft | 23 kts | 236° |
| 2026-05-08 01:00 | 48.36282 | 11.79362 | 1476 ft | 13 kts | 233° |
| 2026-05-08 01:00 | 48.36201 | 11.79295 | 1488 ft | 14 kts | 174° |
| 2026-05-08 01:00 | 48.36093 | 11.79317 | 1490 ft | 17 kts | 173° |
| 2026-05-08 01:01 | 48.35987 | 11.79337 | 1487 ft | 10 kts | 173° |
| 2026-05-08 01:01 | 48.35931 | 11.79356 | 1476 ft | 7 kts | 159° |
| 2026-05-08 01:01 | 48.35910 | 11.79356 | 1480 ft | 1 kts | 209° |
| 2026-05-08 01:01 | 48.35907 | 11.79349 | 1482 ft | 0 kts | 229° |
| 2026-05-08 01:02 | 48.35900 | 11.79323 | 1480 ft | 6 kts | 250° |
| 2026-05-08 01:02 | 48.35894 | 11.79261 | 1489 ft | 2 kts | 263° |
| 2026-05-08 01:02 | 48.35892 | 11.79235 | 1492 ft | 1 kts | 263° |
| 2026-05-08 01:02 | 48.35892 | 11.79224 | 1487 ft | 0 kts | 263° |